PWSweather.com
Personal Weather Stations
Station Observations
2450ARBOR
Round Rock, TX 78681

Round Rock, TX 78681

Lat: 30.535239, Lon: -97.728137

Elevation: 800

Station Type:

High Low Average
Temperature 54.0°F12.2°C 32.2°F0.1°C 42.1°F5.6°C
Dew Point 24.8°F-4.0°C 18.7°F-7.4°C 21.8°F-5.7°C
Winds 2.7 mph 4.3 kmh Calm Calm Calm SSWCalm SSW
Wind Gusts 2.7 mph4.3 kmh -- 1.0 mph1.6 kmh
Humidity 71% 27% 46%
Pressure 29.80 in1009.1 mb 29.67 in1004.7 mb -
Precipitation 0.00 in0.0 mm - -
Hour Temp Dew Point Humidity Winds Wind Gusts Pressure Precip Precip Rate Daily Precip Total
10:36 AM 36.3°F2.4°C 19.9°F-6.7°C 51% Calm Calm -- 29.79 in1008.8 mb 0.00 in0.0 mm 0.00 in0.0 mm 0.00 in0.0 mm
10:37 AM 36.3°F2.4°C 19.9°F-6.7°C 51% Calm Calm -- 29.79 in1008.8 mb 0.00 in0.0 mm 0.00 in0.0 mm 0.00 in0.0 mm
10:38 AM 36.7°F2.6°C 20.3°F-6.5°C 51% Calm Calm 1.1 mph1.8 kmh 29.79 in1008.8 mb 0.00 in0.0 mm 0.00 in0.0 mm 0.00 in0.0 mm
10:39 AM 36.7°F2.6°C 19.8°F-6.8°C 50% Calm Calm 1.1 mph1.8 kmh 29.79 in1008.8 mb 0.00 in0.0 mm 0.00 in0.0 mm 0.00 in0.0 mm
10:40 AM 36.7°F2.6°C 19.8°F-6.8°C 50% Calm Calm 1.1 mph1.8 kmh 29.79 in1008.8 mb 0.00 in0.0 mm 0.00 in0.0 mm 0.00 in0.0 mm
10:41 AM 36.7°F2.6°C 19.4°F-7.0°C 49% 1.1 mph SSE1.8 kmh SSE 2.7 mph4.3 kmh 29.79 in1008.8 mb 0.00 in0.0 mm 0.00 in0.0 mm 0.00 in0.0 mm
10:42 AM 36.7°F2.6°C 19.4°F-7.0°C 49% Calm Calm 2.7 mph4.3 kmh 29.79 in1008.8 mb 0.00 in0.0 mm 0.00 in0.0 mm 0.00 in0.0 mm
10:43 AM 36.7°F2.6°C 19.4°F-7.0°C 49% 1.1 mph SSW1.8 kmh SSW 2.7 mph4.3 kmh 29.79 in1008.8 mb 0.00 in0.0 mm 0.00 in0.0 mm 0.00 in0.0 mm
10:44 AM 36.9°F2.7°C 20.0°F-6.7°C 50% 1.1 mph SW1.8 kmh SW 2.7 mph4.3 kmh 29.79 in1008.8 mb 0.00 in0.0 mm 0.00 in0.0 mm 0.00 in0.0 mm
10:45 AM 36.9°F2.7°C 20.0°F-6.7°C 50% Calm Calm 2.7 mph4.3 kmh 29.79 in1008.8 mb 0.00 in0.0 mm 0.00 in0.0 mm 0.00 in0.0 mm
10:46 AM 36.9°F2.7°C 20.0°F-6.7°C 50% Calm Calm 2.7 mph4.3 kmh 29.79 in1008.8 mb 0.00 in0.0 mm 0.00 in0.0 mm 0.00 in0.0 mm
10:47 AM 37.0°F2.8°C 20.1°F-6.6°C 50% 1.7 mph SSW2.7 kmh SSW 2.7 mph4.3 kmh 29.79 in1008.8 mb 0.00 in0.0 mm 0.00 in0.0 mm 0.00 in0.0 mm
10:48 AM 37.2°F2.9°C 20.3°F-6.5°C 50% 1.1 mph SW1.8 kmh SW 2.7 mph4.3 kmh 29.79 in1008.8 mb 0.00 in0.0 mm 0.00 in0.0 mm 0.00 in0.0 mm
10:49 AM 37.2°F2.9°C 20.3°F-6.5°C 50% Calm Calm 2.7 mph4.3 kmh 29.79 in1008.8 mb 0.00 in0.0 mm 0.00 in0.0 mm 0.00 in0.0 mm
10:50 AM 37.2°F2.9°C 20.3°F-6.5°C 50% Calm Calm 2.7 mph4.3 kmh 29.79 in1008.8 mb 0.00 in0.0 mm 0.00 in0.0 mm 0.00 in0.0 mm
10:51 AM 37.2°F2.9°C 20.3°F-6.5°C 50% 2.2 mph SSE3.5 kmh SSE 2.2 mph3.5 kmh 29.79 in1008.8 mb 0.00 in0.0 mm 0.00 in0.0 mm 0.00 in0.0 mm
10:52 AM 37.4°F3.0°C 20.5°F-6.4°C 50% 1.1 mph SE1.8 kmh SE 2.2 mph3.5 kmh 29.79 in1008.8 mb 0.00 in0.0 mm 0.00 in0.0 mm 0.00 in0.0 mm
10:53 AM 37.6°F3.1°C 20.7°F-6.3°C 50% Calm Calm 2.2 mph3.5 kmh 29.79 in1008.8 mb 0.00 in0.0 mm 0.00 in0.0 mm 0.00 in0.0 mm
10:54 AM 37.6°F3.1°C 20.7°F-6.3°C 50% Calm Calm 2.2 mph3.5 kmh 29.79 in1008.8 mb 0.00 in0.0 mm 0.00 in0.0 mm 0.00 in0.0 mm
10:55 AM 37.6°F3.1°C 20.7°F-6.3°C 50% Calm Calm 2.2 mph3.5 kmh 29.79 in1008.8 mb 0.00 in0.0 mm 0.00 in0.0 mm 0.00 in0.0 mm
10:56 AM 37.6°F3.1°C 20.7°F-6.3°C 50% 1.1 mph SSW1.8 kmh SSW 2.2 mph3.5 kmh 29.79 in1008.8 mb 0.00 in0.0 mm 0.00 in0.0 mm 0.00 in0.0 mm
10:57 AM 37.8°F3.2°C 20.4°F-6.4°C 49% Calm Calm 2.2 mph3.5 kmh 29.79 in1008.8 mb 0.00 in0.0 mm 0.00 in0.0 mm 0.00 in0.0 mm
10:58 AM 37.8°F3.2°C 20.4°F-6.4°C 49% Calm Calm 2.2 mph3.5 kmh 29.80 in1009.1 mb 0.00 in0.0 mm 0.00 in0.0 mm 0.00 in0.0 mm
10:59 AM 37.8°F3.2°C 20.4°F-6.4°C 49% Calm Calm 2.2 mph3.5 kmh 29.80 in1009.1 mb 0.00 in0.0 mm 0.00 in0.0 mm 0.00 in0.0 mm
11:00 AM 37.8°F3.2°C 20.4°F-6.4°C 49% 1.7 mph W2.7 kmh W 2.2 mph3.5 kmh 29.80 in1009.1 mb 0.00 in0.0 mm 0.00 in0.0 mm 0.00 in0.0 mm
11:01 AM 37.9°F3.3°C 20.5°F-6.4°C 49% 2.2 mph S3.5 kmh S 2.2 mph3.5 kmh 29.80 in1009.1 mb 0.00 in0.0 mm 0.00 in0.0 mm 0.00 in0.0 mm
11:02 AM 37.9°F3.3°C 20.5°F-6.4°C 49% 2.2 mph SSW3.5 kmh SSW 2.2 mph3.5 kmh 29.80 in1009.1 mb 0.00 in0.0 mm 0.00 in0.0 mm 0.00 in0.0 mm
11:03 AM 38.1°F3.4°C 20.7°F-6.3°C 49% 1.1 mph SSW1.8 kmh SSW 2.2 mph3.5 kmh 29.80 in1009.1 mb 0.00 in0.0 mm 0.00 in0.0 mm 0.00 in0.0 mm
11:04 AM 38.1°F3.4°C 20.7°F-6.3°C 49% Calm Calm 2.2 mph3.5 kmh 29.80 in1009.1 mb 0.00 in0.0 mm 0.00 in0.0 mm 0.00 in0.0 mm
11:05 AM 38.1°F3.4°C 20.7°F-6.3°C 49% 1.1 mph ESE1.8 kmh ESE 2.2 mph3.5 kmh 29.80 in1009.1 mb 0.00 in0.0 mm 0.00 in0.0 mm 0.00 in0.0 mm
11:06 AM 38.1°F3.4°C 20.7°F-6.3°C 49% Calm Calm 2.2 mph3.5 kmh 29.80 in1009.1 mb 0.00 in0.0 mm 0.00 in0.0 mm 0.00 in0.0 mm
11:07 AM 38.1°F3.4°C 20.7°F-6.3°C 49% 1.7 mph S2.7 kmh S 2.2 mph3.5 kmh 29.80 in1009.1 mb 0.00 in0.0 mm 0.00 in0.0 mm 0.00 in0.0 mm
11:08 AM 38.1°F3.4°C 20.2°F-6.6°C 48% Calm Calm 2.2 mph3.5 kmh 29.80 in1009.1 mb 0.00 in0.0 mm 0.00 in0.0 mm 0.00 in0.0 mm
11:09 AM 38.1°F3.4°C 20.2°F-6.6°C 48% 1.1 mph SSW1.8 kmh SSW 2.2 mph3.5 kmh 29.80 in1009.1 mb 0.00 in0.0 mm 0.00 in0.0 mm 0.00 in0.0 mm
11:10 AM 38.1°F3.4°C 20.2°F-6.6°C 48% 1.7 mph S2.7 kmh S 2.2 mph3.5 kmh 29.80 in1009.1 mb 0.00 in0.0 mm 0.00 in0.0 mm 0.00 in0.0 mm
11:11 AM 38.1°F3.4°C 20.2°F-6.6°C 48% 1.1 mph S1.8 kmh S 2.2 mph3.5 kmh 29.80 in1009.1 mb 0.00 in0.0 mm 0.00 in0.0 mm 0.00 in0.0 mm
11:12 AM 38.3°F3.5°C 20.8°F-6.2°C 49% 1.7 mph SSW2.7 kmh SSW 2.2 mph3.5 kmh 29.80 in1009.1 mb 0.00 in0.0 mm 0.00 in0.0 mm 0.00 in0.0 mm
11:13 AM 38.5°F3.6°C 21.0°F-6.1°C 49% 1.1 mph S1.8 kmh S 2.2 mph3.5 kmh 29.80 in1009.1 mb 0.00 in0.0 mm 0.00 in0.0 mm 0.00 in0.0 mm
11:14 AM 38.5°F3.6°C 20.5°F-6.4°C 48% 1.1 mph S1.8 kmh S 2.2 mph3.5 kmh 29.80 in1009.1 mb 0.00 in0.0 mm 0.00 in0.0 mm 0.00 in0.0 mm
11:15 AM 38.7°F3.7°C 20.7°F-6.3°C 48% 1.7 mph ESE2.7 kmh ESE 2.2 mph3.5 kmh 29.80 in1009.1 mb 0.00 in0.0 mm 0.00 in0.0 mm 0.00 in0.0 mm
11:16 AM 38.8°F3.8°C 20.3°F-6.5°C 47% 2.2 mph SSW3.5 kmh SSW 2.2 mph3.5 kmh 29.80 in1009.1 mb 0.00 in0.0 mm 0.00 in0.0 mm 0.00 in0.0 mm
11:17 AM 38.8°F3.8°C 20.3°F-6.5°C 47% Calm Calm 2.2 mph3.5 kmh 29.80 in1009.1 mb 0.00 in0.0 mm 0.00 in0.0 mm 0.00 in0.0 mm
11:18 AM 38.8°F3.8°C 20.3°F-6.5°C 47% Calm Calm 2.2 mph3.5 kmh 29.80 in1009.1 mb 0.00 in0.0 mm 0.00 in0.0 mm 0.00 in0.0 mm
11:19 AM 38.8°F3.8°C 20.3°F-6.5°C 47% Calm Calm 2.2 mph3.5 kmh 29.80 in1009.1 mb 0.00 in0.0 mm 0.00 in0.0 mm 0.00 in0.0 mm
11:20 AM 38.8°F3.8°C 20.3°F-6.5°C 47% 1.7 mph W2.7 kmh W 2.2 mph3.5 kmh 29.80 in1009.1 mb 0.00 in0.0 mm 0.00 in0.0 mm 0.00 in0.0 mm
11:21 AM 39.0°F3.9°C 20.5°F-6.4°C 47% 1.1 mph SSW1.8 kmh SSW 2.2 mph3.5 kmh 29.80 in1009.1 mb 0.00 in0.0 mm 0.00 in0.0 mm 0.00 in0.0 mm
11:22 AM 39.0°F3.9°C 20.5°F-6.4°C 47% 1.7 mph WSW2.7 kmh WSW 2.2 mph3.5 kmh 29.80 in1009.1 mb 0.00 in0.0 mm 0.00 in0.0 mm 0.00 in0.0 mm
11:23 AM 39.0°F3.9°C 20.0°F-6.7°C 46% 2.2 mph SSW3.5 kmh SSW 2.2 mph3.5 kmh 29.80 in1009.1 mb 0.00 in0.0 mm 0.00 in0.0 mm 0.00 in0.0 mm
11:24 AM 39.0°F3.9°C 20.0°F-6.7°C 46% 1.7 mph SSW2.7 kmh SSW 2.2 mph3.5 kmh 29.80 in1009.1 mb 0.00 in0.0 mm 0.00 in0.0 mm 0.00 in0.0 mm
11:25 AM 39.2°F4.0°C 20.7°F-6.3°C 47% 1.1 mph WSW1.8 kmh WSW 2.7 mph4.3 kmh 29.80 in1009.1 mb 0.00 in0.0 mm 0.00 in0.0 mm 0.00 in0.0 mm
11:26 AM 39.2°F4.0°C 20.2°F-6.6°C 46% 2.2 mph ESE3.5 kmh ESE 2.7 mph4.3 kmh 29.80 in1009.1 mb 0.00 in0.0 mm 0.00 in0.0 mm 0.00 in0.0 mm
11:27 AM 39.2°F4.0°C 20.2°F-6.6°C 46% 1.1 mph S1.8 kmh S 2.7 mph4.3 kmh 29.80 in1009.1 mb 0.00 in0.0 mm 0.00 in0.0 mm 0.00 in0.0 mm
11:28 AM 39.2°F4.0°C 20.2°F-6.6°C 46% 1.1 mph SSW1.8 kmh SSW 2.7 mph4.3 kmh 29.80 in1009.1 mb 0.00 in0.0 mm 0.00 in0.0 mm 0.00 in0.0 mm
11:29 AM 39.2°F4.0°C 20.2°F-6.6°C 46% Calm Calm 2.7 mph4.3 kmh 29.80 in1009.1 mb 0.00 in0.0 mm 0.00 in0.0 mm 0.00 in0.0 mm
11:30 AM 39.2°F4.0°C 20.2°F-6.6°C 46% Calm Calm 2.7 mph4.3 kmh 29.80 in1009.1 mb 0.00 in0.0 mm 0.00 in0.0 mm 0.00 in0.0 mm
11:31 AM 39.2°F4.0°C 20.2°F-6.6°C 46% 2.7 mph SSW4.3 kmh SSW 2.7 mph4.3 kmh 29.80 in1009.1 mb 0.00 in0.0 mm 0.00 in0.0 mm 0.00 in0.0 mm
11:32 AM 39.2°F4.0°C 20.2°F-6.6°C 46% 1.1 mph WNW1.8 kmh WNW 2.7 mph4.3 kmh 29.80 in1009.1 mb 0.00 in0.0 mm 0.00 in0.0 mm 0.00 in0.0 mm
11:33 AM 39.2°F4.0°C 20.2°F-6.6°C 46% Calm Calm 2.7 mph4.3 kmh 29.79 in1008.8 mb 0.00 in0.0 mm 0.00 in0.0 mm 0.00 in0.0 mm
11:34 AM 39.4°F4.1°C 20.4°F-6.4°C 46% Calm Calm 2.7 mph4.3 kmh 29.79 in1008.8 mb 0.00 in0.0 mm 0.00 in0.0 mm 0.00 in0.0 mm
11:35 AM 39.4°F4.1°C 20.4°F-6.4°C 46% 1.1 mph S1.8 kmh S 2.7 mph4.3 kmh 29.79 in1008.8 mb 0.00 in0.0 mm 0.00 in0.0 mm 0.00 in0.0 mm
11:36 AM 39.4°F4.1°C 19.3°F-7.1°C 44% Calm Calm 2.7 mph4.3 kmh 29.79 in1008.8 mb 0.00 in0.0 mm 0.00 in0.0 mm 0.00 in0.0 mm
11:37 AM 39.6°F4.2°C 19.5°F-6.9°C 44% 1.1 mph W1.8 kmh W 2.7 mph4.3 kmh 29.79 in1008.8 mb 0.00 in0.0 mm 0.00 in0.0 mm 0.00 in0.0 mm
11:38 AM 39.6°F4.2°C 19.5°F-6.9°C 44% Calm Calm 2.7 mph4.3 kmh 29.79 in1008.8 mb 0.00 in0.0 mm 0.00 in0.0 mm 0.00 in0.0 mm
11:39 AM 39.6°F4.2°C 19.5°F-6.9°C 44% Calm Calm 2.7 mph4.3 kmh 29.79 in1008.8 mb 0.00 in0.0 mm 0.00 in0.0 mm 0.00 in0.0 mm
11:40 AM 39.6°F4.2°C 19.5°F-6.9°C 44% 1.7 mph SSE2.7 kmh SSE 2.7 mph4.3 kmh 29.79 in1008.8 mb 0.00 in0.0 mm 0.00 in0.0 mm 0.00 in0.0 mm
11:41 AM 39.6°F4.2°C 19.5°F-6.9°C 44% 1.1 mph S1.8 kmh S 2.7 mph4.3 kmh 29.79 in1008.8 mb 0.00 in0.0 mm 0.00 in0.0 mm 0.00 in0.0 mm
11:42 AM 39.7°F4.3°C 19.6°F-6.9°C 44% 2.7 mph S4.3 kmh S 2.7 mph4.3 kmh 29.79 in1008.8 mb 0.00 in0.0 mm 0.00 in0.0 mm 0.00 in0.0 mm
11:43 AM 39.7°F4.3°C 19.6°F-6.9°C 44% Calm Calm 2.7 mph4.3 kmh 29.79 in1008.8 mb 0.00 in0.0 mm 0.00 in0.0 mm 0.00 in0.0 mm
11:44 AM 39.7°F4.3°C 19.6°F-6.9°C 44% Calm Calm 2.7 mph4.3 kmh 29.79 in1008.8 mb 0.00 in0.0 mm 0.00 in0.0 mm 0.00 in0.0 mm
11:45 AM 39.7°F4.3°C 19.6°F-6.9°C 44% 1.1 mph SSE1.8 kmh SSE 2.7 mph4.3 kmh 29.79 in1008.8 mb 0.00 in0.0 mm 0.00 in0.0 mm 0.00 in0.0 mm
11:46 AM 39.7°F4.3°C 19.6°F-6.9°C 44% 1.1 mph W1.8 kmh W 2.7 mph4.3 kmh 29.78 in1008.5 mb 0.00 in0.0 mm 0.00 in0.0 mm 0.00 in0.0 mm
11:47 AM 39.9°F4.4°C 20.3°F-6.5°C 45% 2.2 mph SSE3.5 kmh SSE 2.7 mph4.3 kmh 29.78 in1008.5 mb 0.00 in0.0 mm 0.00 in0.0 mm 0.00 in0.0 mm
11:48 AM 40.1°F4.5°C 20.0°F-6.7°C 44% Calm Calm 2.7 mph4.3 kmh 29.78 in1008.5 mb 0.00 in0.0 mm 0.00 in0.0 mm 0.00 in0.0 mm
11:49 AM 40.1°F4.5°C 20.0°F-6.7°C 44% 1.1 mph SSW1.8 kmh SSW 2.7 mph4.3 kmh 29.78 in1008.5 mb 0.00 in0.0 mm 0.00 in0.0 mm 0.00 in0.0 mm
11:50 AM 40.1°F4.5°C 20.0°F-6.7°C 44% 1.1 mph ESE1.8 kmh ESE 2.7 mph4.3 kmh 29.78 in1008.5 mb 0.00 in0.0 mm 0.00 in0.0 mm 0.00 in0.0 mm
11:51 AM 40.3°F4.6°C 20.1°F-6.6°C 44% Calm Calm 2.7 mph4.3 kmh 29.78 in1008.5 mb 0.00 in0.0 mm 0.00 in0.0 mm 0.00 in0.0 mm
11:52 AM 40.3°F4.6°C 20.1°F-6.6°C 44% 1.1 mph S1.8 kmh S 2.7 mph4.3 kmh 29.78 in1008.5 mb 0.00 in0.0 mm 0.00 in0.0 mm 0.00 in0.0 mm
11:53 AM 40.5°F4.7°C 20.3°F-6.5°C 44% Calm Calm 2.7 mph4.3 kmh 29.78 in1008.5 mb 0.00 in0.0 mm 0.00 in0.0 mm 0.00 in0.0 mm
11:54 AM 40.5°F4.7°C 20.3°F-6.5°C 44% 1.1 mph E1.8 kmh E 2.7 mph4.3 kmh 29.78 in1008.5 mb 0.00 in0.0 mm 0.00 in0.0 mm 0.00 in0.0 mm
11:55 AM 40.5°F4.7°C 20.3°F-6.5°C 44% 1.7 mph W2.7 kmh W 2.7 mph4.3 kmh 29.78 in1008.5 mb 0.00 in0.0 mm 0.00 in0.0 mm 0.00 in0.0 mm
11:56 AM 40.6°F4.8°C 20.4°F-6.4°C 44% Calm Calm 2.7 mph4.3 kmh 29.78 in1008.5 mb 0.00 in0.0 mm 0.00 in0.0 mm 0.00 in0.0 mm
11:57 AM 40.6°F4.8°C 20.4°F-6.4°C 44% 2.2 mph S3.5 kmh S 2.2 mph3.5 kmh 29.78 in1008.5 mb 0.00 in0.0 mm 0.00 in0.0 mm 0.00 in0.0 mm
11:58 AM 40.8°F4.9°C 20.6°F-6.3°C 44% Calm Calm 2.2 mph3.5 kmh 29.77 in1008.1 mb 0.00 in0.0 mm 0.00 in0.0 mm 0.00 in0.0 mm
11:59 AM 40.8°F4.9°C 20.1°F-6.6°C 43% 1.1 mph SW1.8 kmh SW 2.2 mph3.5 kmh 29.77 in1008.1 mb 0.00 in0.0 mm 0.00 in0.0 mm 0.00 in0.0 mm
12:00 PM 40.8°F4.9°C 20.1°F-6.6°C 43% 1.7 mph S2.7 kmh S 2.2 mph3.5 kmh 29.77 in1008.1 mb 0.00 in0.0 mm 0.00 in0.0 mm 0.00 in0.0 mm
12:01 PM 40.8°F4.9°C 20.1°F-6.6°C 43% 1.7 mph NW2.7 kmh NW 2.2 mph3.5 kmh 29.77 in1008.1 mb 0.00 in0.0 mm 0.00 in0.0 mm 0.00 in0.0 mm
12:02 PM 40.8°F4.9°C 20.1°F-6.6°C 43% Calm Calm 2.2 mph3.5 kmh 29.77 in1008.1 mb 0.00 in0.0 mm 0.00 in0.0 mm 0.00 in0.0 mm
12:03 PM 40.8°F4.9°C 20.1°F-6.6°C 43% 1.1 mph SW1.8 kmh SW 2.2 mph3.5 kmh 29.77 in1008.1 mb 0.00 in0.0 mm 0.00 in0.0 mm 0.00 in0.0 mm
12:04 PM 41.0°F5.0°C 20.2°F-6.6°C 43% Calm Calm 2.2 mph3.5 kmh 29.77 in1008.1 mb 0.00 in0.0 mm 0.00 in0.0 mm 0.00 in0.0 mm
12:05 PM 41.2°F5.1°C 20.4°F-6.4°C 43% Calm Calm 2.2 mph3.5 kmh 29.77 in1008.1 mb 0.00 in0.0 mm 0.00 in0.0 mm 0.00 in0.0 mm
12:06 PM 41.2°F5.1°C 20.4°F-6.4°C 43% Calm Calm 2.2 mph3.5 kmh 29.77 in1008.1 mb 0.00 in0.0 mm 0.00 in0.0 mm 0.00 in0.0 mm
12:07 PM 41.2°F5.1°C 20.4°F-6.4°C 43% Calm Calm 2.2 mph3.5 kmh 29.77 in1008.1 mb 0.00 in0.0 mm 0.00 in0.0 mm 0.00 in0.0 mm
12:08 PM 41.4°F5.2°C 20.6°F-6.3°C 43% 1.1 mph W1.8 kmh W 2.2 mph3.5 kmh 29.77 in1008.1 mb 0.00 in0.0 mm 0.00 in0.0 mm 0.00 in0.0 mm
12:09 PM 41.4°F5.2°C 20.6°F-6.3°C 43% 1.7 mph SW2.7 kmh SW 2.2 mph3.5 kmh 29.77 in1008.1 mb 0.00 in0.0 mm 0.00 in0.0 mm 0.00 in0.0 mm
12:10 PM 41.4°F5.2°C 20.1°F-6.6°C 42% 1.7 mph S2.7 kmh S 2.2 mph3.5 kmh 29.77 in1008.1 mb 0.00 in0.0 mm 0.00 in0.0 mm 0.00 in0.0 mm
12:11 PM 41.5°F5.3°C 20.1°F-6.6°C 42% 2.2 mph W3.5 kmh W 2.2 mph3.5 kmh 29.77 in1008.1 mb 0.00 in0.0 mm 0.00 in0.0 mm 0.00 in0.0 mm
12:12 PM 41.5°F5.3°C 20.1°F-6.6°C 42% 1.1 mph SW1.8 kmh SW 2.7 mph4.3 kmh 29.77 in1008.1 mb 0.00 in0.0 mm 0.00 in0.0 mm 0.00 in0.0 mm
12:13 PM 41.5°F5.3°C 20.1°F-6.6°C 42% Calm Calm 2.7 mph4.3 kmh 29.77 in1008.1 mb 0.00 in0.0 mm 0.00 in0.0 mm 0.00 in0.0 mm
12:14 PM 41.5°F5.3°C 20.1°F-6.6°C 42% Calm Calm 2.7 mph4.3 kmh 29.77 in1008.1 mb 0.00 in0.0 mm 0.00 in0.0 mm 0.00 in0.0 mm
12:15 PM 41.5°F5.3°C 20.1°F-6.6°C 42% Calm Calm 2.7 mph4.3 kmh 29.77 in1008.1 mb 0.00 in0.0 mm 0.00 in0.0 mm 0.00 in0.0 mm
12:16 PM 41.5°F5.3°C 20.1°F-6.6°C 42% Calm Calm 2.7 mph4.3 kmh 29.77 in1008.1 mb 0.00 in0.0 mm 0.00 in0.0 mm 0.00 in0.0 mm
12:17 PM 41.7°F5.4°C 20.3°F-6.5°C 42% Calm Calm 2.7 mph4.3 kmh 29.77 in1008.1 mb 0.00 in0.0 mm 0.00 in0.0 mm 0.00 in0.0 mm
12:18 PM 41.9°F5.5°C 20.5°F-6.4°C 42% Calm Calm 2.7 mph4.3 kmh 29.77 in1008.1 mb 0.00 in0.0 mm 0.00 in0.0 mm 0.00 in0.0 mm
12:19 PM 41.9°F5.5°C 20.5°F-6.4°C 42% 1.1 mph NW1.8 kmh NW 2.7 mph4.3 kmh 29.77 in1008.1 mb 0.00 in0.0 mm 0.00 in0.0 mm 0.00 in0.0 mm
12:20 PM 41.9°F5.5°C 20.5°F-6.4°C 42% 1.7 mph SE2.7 kmh SE 2.7 mph4.3 kmh 29.77 in1008.1 mb 0.00 in0.0 mm 0.00 in0.0 mm 0.00 in0.0 mm
12:21 PM 41.9°F5.5°C 20.5°F-6.4°C 42% Calm Calm 2.7 mph4.3 kmh 29.77 in1008.1 mb 0.00 in0.0 mm 0.00 in0.0 mm 0.00 in0.0 mm
12:22 PM 41.9°F5.5°C 20.5°F-6.4°C 42% Calm Calm 1.7 mph2.7 kmh 29.76 in1007.8 mb 0.00 in0.0 mm 0.00 in0.0 mm 0.00 in0.0 mm
12:23 PM 41.9°F5.5°C 20.5°F-6.4°C 42% Calm Calm 1.7 mph2.7 kmh 29.76 in1007.8 mb 0.00 in0.0 mm 0.00 in0.0 mm 0.00 in0.0 mm
12:24 PM 42.1°F5.6°C 20.7°F-6.3°C 42% 1.1 mph NW1.8 kmh NW 1.7 mph2.7 kmh 29.76 in1007.8 mb 0.00 in0.0 mm 0.00 in0.0 mm 0.00 in0.0 mm
12:25 PM 42.1°F5.6°C 20.1°F-6.6°C 41% 1.1 mph W1.8 kmh W 1.7 mph2.7 kmh 29.76 in1007.8 mb 0.00 in0.0 mm 0.00 in0.0 mm 0.00 in0.0 mm
12:26 PM 42.1°F5.6°C 20.1°F-6.6°C 41% Calm Calm 1.7 mph2.7 kmh 29.76 in1007.8 mb 0.00 in0.0 mm 0.00 in0.0 mm 0.00 in0.0 mm
12:27 PM 42.1°F5.6°C 20.1°F-6.6°C 41% Calm Calm 1.7 mph2.7 kmh 29.76 in1007.8 mb 0.00 in0.0 mm 0.00 in0.0 mm 0.00 in0.0 mm
12:28 PM 42.4°F5.8°C 21.0°F-6.1°C 42% 1.7 mph SW2.7 kmh SW 1.7 mph2.7 kmh 29.76 in1007.8 mb 0.00 in0.0 mm 0.00 in0.0 mm 0.00 in0.0 mm
12:29 PM 42.4°F5.8°C 20.4°F-6.4°C 41% 1.1 mph E1.8 kmh E 1.7 mph2.7 kmh 29.76 in1007.8 mb 0.00 in0.0 mm 0.00 in0.0 mm 0.00 in0.0 mm
12:30 PM 42.4°F5.8°C 19.8°F-6.8°C 40% 1.7 mph NE2.7 kmh NE 2.2 mph3.5 kmh 29.76 in1007.8 mb 0.00 in0.0 mm 0.00 in0.0 mm 0.00 in0.0 mm
12:31 PM 42.4°F5.8°C 19.8°F-6.8°C 40% 1.7 mph WNW2.7 kmh WNW 2.2 mph3.5 kmh 29.76 in1007.8 mb 0.00 in0.0 mm 0.00 in0.0 mm 0.00 in0.0 mm
12:32 PM 42.4°F5.8°C 19.8°F-6.8°C 40% 2.2 mph WSW3.5 kmh WSW 2.2 mph3.5 kmh 29.76 in1007.8 mb 0.00 in0.0 mm 0.00 in0.0 mm 0.00 in0.0 mm
12:33 PM 42.6°F5.9°C 20.0°F-6.7°C 40% Calm Calm 2.2 mph3.5 kmh 29.76 in1007.8 mb 0.00 in0.0 mm 0.00 in0.0 mm 0.00 in0.0 mm
12:34 PM 42.6°F5.9°C 20.0°F-6.7°C 40% 1.7 mph SSW2.7 kmh SSW 2.2 mph3.5 kmh 29.75 in1007.5 mb 0.00 in0.0 mm 0.00 in0.0 mm 0.00 in0.0 mm
12:35 PM 42.6°F5.9°C 20.0°F-6.7°C 40% Calm Calm 2.2 mph3.5 kmh 29.75 in1007.5 mb 0.00 in0.0 mm 0.00 in0.0 mm 0.00 in0.0 mm
12:36 PM 42.6°F5.9°C 20.0°F-6.7°C 40% Calm Calm 2.2 mph3.5 kmh 29.75 in1007.5 mb 0.00 in0.0 mm 0.00 in0.0 mm 0.00 in0.0 mm
12:37 PM 42.8°F6.0°C 20.2°F-6.6°C 40% 1.7 mph WNW2.7 kmh WNW 2.7 mph4.3 kmh 29.75 in1007.5 mb 0.00 in0.0 mm 0.00 in0.0 mm 0.00 in0.0 mm
12:38 PM 43.0°F6.1°C 19.8°F-6.8°C 39% 1.1 mph SSW1.8 kmh SSW 2.7 mph4.3 kmh 29.75 in1007.5 mb 0.00 in0.0 mm 0.00 in0.0 mm 0.00 in0.0 mm
12:39 PM 43.0°F6.1°C 20.4°F-6.4°C 40% 2.2 mph WSW3.5 kmh WSW 2.7 mph4.3 kmh 29.75 in1007.5 mb 0.00 in0.0 mm 0.00 in0.0 mm 0.00 in0.0 mm
12:40 PM 43.0°F6.1°C 20.4°F-6.4°C 40% 2.2 mph SSE3.5 kmh SSE 2.7 mph4.3 kmh 29.75 in1007.5 mb 0.00 in0.0 mm 0.00 in0.0 mm 0.00 in0.0 mm
12:41 PM 43.0°F6.1°C 20.4°F-6.4°C 40% Calm Calm 2.7 mph4.3 kmh 29.75 in1007.5 mb 0.00 in0.0 mm 0.00 in0.0 mm 0.00 in0.0 mm
12:42 PM 43.2°F6.2°C 20.5°F-6.4°C 40% 1.1 mph SW1.8 kmh SW 2.7 mph4.3 kmh 29.75 in1007.5 mb 0.00 in0.0 mm 0.00 in0.0 mm 0.00 in0.0 mm
12:43 PM 43.2°F6.2°C 19.9°F-6.7°C 39% Calm Calm 2.7 mph4.3 kmh 29.75 in1007.5 mb 0.00 in0.0 mm 0.00 in0.0 mm 0.00 in0.0 mm
12:44 PM 43.2°F6.2°C 20.5°F-6.4°C 40% Calm Calm 2.7 mph4.3 kmh 29.75 in1007.5 mb 0.00 in0.0 mm 0.00 in0.0 mm 0.00 in0.0 mm
12:45 PM 43.2°F6.2°C 20.5°F-6.4°C 40% 1.7 mph S2.7 kmh S 2.7 mph4.3 kmh 29.75 in1007.5 mb 0.00 in0.0 mm 0.00 in0.0 mm 0.00 in0.0 mm
12:46 PM 43.3°F6.3°C 20.6°F-6.3°C 40% 1.1 mph SSW1.8 kmh SSW 2.7 mph4.3 kmh 29.74 in1007.1 mb 0.00 in0.0 mm 0.00 in0.0 mm 0.00 in0.0 mm
12:47 PM 43.5°F6.4°C 20.8°F-6.2°C 40% Calm Calm 2.7 mph4.3 kmh 29.74 in1007.1 mb 0.00 in0.0 mm 0.00 in0.0 mm 0.00 in0.0 mm
12:48 PM 43.5°F6.4°C 20.8°F-6.2°C 40% 1.7 mph SSW2.7 kmh SSW 2.7 mph4.3 kmh 29.74 in1007.1 mb 0.00 in0.0 mm 0.00 in0.0 mm 0.00 in0.0 mm
12:49 PM 43.5°F6.4°C 20.2°F-6.6°C 39% 1.7 mph SSW2.7 kmh SSW 2.2 mph3.5 kmh 29.74 in1007.1 mb 0.00 in0.0 mm 0.00 in0.0 mm 0.00 in0.0 mm
12:50 PM 43.7°F6.5°C 20.4°F-6.4°C 39% Calm Calm 2.2 mph3.5 kmh 29.74 in1007.1 mb 0.00 in0.0 mm 0.00 in0.0 mm 0.00 in0.0 mm
12:51 PM 43.7°F6.5°C 20.4°F-6.4°C 39% 1.7 mph SSW2.7 kmh SSW 2.2 mph3.5 kmh 29.74 in1007.1 mb 0.00 in0.0 mm 0.00 in0.0 mm 0.00 in0.0 mm
12:52 PM 43.7°F6.5°C 20.4°F-6.4°C 39% 1.7 mph SSW2.7 kmh SSW 2.2 mph3.5 kmh 29.74 in1007.1 mb 0.00 in0.0 mm 0.00 in0.0 mm 0.00 in0.0 mm
12:53 PM 43.9°F6.6°C 20.6°F-6.3°C 39% 1.7 mph SSW2.7 kmh SSW 2.2 mph3.5 kmh 29.74 in1007.1 mb 0.00 in0.0 mm 0.00 in0.0 mm 0.00 in0.0 mm
12:54 PM 43.9°F6.6°C 20.6°F-6.3°C 39% Calm Calm 2.2 mph3.5 kmh 29.74 in1007.1 mb 0.00 in0.0 mm 0.00 in0.0 mm 0.00 in0.0 mm
12:55 PM 43.9°F6.6°C 20.6°F-6.3°C 39% 1.1 mph SSW1.8 kmh SSW 2.2 mph3.5 kmh 29.74 in1007.1 mb 0.00 in0.0 mm 0.00 in0.0 mm 0.00 in0.0 mm
12:56 PM 43.9°F6.6°C 20.6°F-6.3°C 39% Calm Calm 2.2 mph3.5 kmh 29.74 in1007.1 mb 0.00 in0.0 mm 0.00 in0.0 mm 0.00 in0.0 mm
12:57 PM 43.9°F6.6°C 20.6°F-6.3°C 39% Calm Calm 2.2 mph3.5 kmh 29.74 in1007.1 mb 0.00 in0.0 mm 0.00 in0.0 mm 0.00 in0.0 mm
12:58 PM 43.9°F6.6°C 20.0°F-6.7°C 38% 1.7 mph SSW2.7 kmh SSW 1.7 mph2.7 kmh 29.74 in1007.1 mb 0.00 in0.0 mm 0.00 in0.0 mm 0.00 in0.0 mm
12:59 PM 43.9°F6.6°C 20.0°F-6.7°C 38% 1.7 mph SE2.7 kmh SE 2.7 mph4.3 kmh 29.74 in1007.1 mb 0.00 in0.0 mm 0.00 in0.0 mm 0.00 in0.0 mm
01:00 PM 43.9°F6.6°C 20.0°F-6.7°C 38% Calm Calm 2.7 mph4.3 kmh 29.74 in1007.1 mb 0.00 in0.0 mm 0.00 in0.0 mm 0.00 in0.0 mm
01:01 PM 43.9°F6.6°C 20.0°F-6.7°C 38% 1.7 mph SSW2.7 kmh SSW 2.7 mph4.3 kmh 29.74 in1007.1 mb 0.00 in0.0 mm 0.00 in0.0 mm 0.00 in0.0 mm
01:02 PM 43.9°F6.6°C 20.0°F-6.7°C 38% Calm Calm 2.7 mph4.3 kmh 29.74 in1007.1 mb 0.00 in0.0 mm 0.00 in0.0 mm 0.00 in0.0 mm
01:03 PM 44.1°F6.7°C 20.1°F-6.6°C 38% 1.1 mph SSW1.8 kmh SSW 2.7 mph4.3 kmh 29.74 in1007.1 mb 0.00 in0.0 mm 0.00 in0.0 mm 0.00 in0.0 mm
01:04 PM 44.2°F6.8°C 20.2°F-6.6°C 38% 2.2 mph SSW3.5 kmh SSW 2.7 mph4.3 kmh 29.74 in1007.1 mb 0.00 in0.0 mm 0.00 in0.0 mm 0.00 in0.0 mm
01:05 PM 44.2°F6.8°C 20.2°F-6.6°C 38% Calm Calm 2.7 mph4.3 kmh 29.74 in1007.1 mb 0.00 in0.0 mm 0.00 in0.0 mm 0.00 in0.0 mm
01:06 PM 44.4°F6.9°C 21.0°F-6.1°C 39% Calm Calm 2.7 mph4.3 kmh 29.74 in1007.1 mb 0.00 in0.0 mm 0.00 in0.0 mm 0.00 in0.0 mm
01:07 PM 44.4°F6.9°C 21.0°F-6.1°C 39% 1.7 mph WSW2.7 kmh WSW 2.7 mph4.3 kmh 29.74 in1007.1 mb 0.00 in0.0 mm 0.00 in0.0 mm 0.00 in0.0 mm
01:08 PM 44.4°F6.9°C 21.0°F-6.1°C 39% 1.1 mph S1.8 kmh S 2.7 mph4.3 kmh 29.74 in1007.1 mb 0.00 in0.0 mm 0.00 in0.0 mm 0.00 in0.0 mm
01:09 PM 44.6°F7.0°C 21.2°F-6.0°C 39% Calm Calm 2.2 mph3.5 kmh 29.73 in1006.8 mb 0.00 in0.0 mm 0.00 in0.0 mm 0.00 in0.0 mm
01:10 PM 44.8°F7.1°C 21.4°F-5.9°C 39% Calm Calm 2.2 mph3.5 kmh 29.73 in1006.8 mb 0.00 in0.0 mm 0.00 in0.0 mm 0.00 in0.0 mm
01:11 PM 44.8°F7.1°C 21.4°F-5.9°C 39% 1.7 mph SSE2.7 kmh SSE 2.2 mph3.5 kmh 29.73 in1006.8 mb 0.00 in0.0 mm 0.00 in0.0 mm 0.00 in0.0 mm
01:12 PM 44.8°F7.1°C 20.1°F-6.6°C 37% Calm Calm 2.2 mph3.5 kmh 29.73 in1006.8 mb 0.00 in0.0 mm 0.00 in0.0 mm 0.00 in0.0 mm
01:13 PM 44.8°F7.1°C 20.8°F-6.2°C 38% Calm Calm 2.2 mph3.5 kmh 29.73 in1006.8 mb 0.00 in0.0 mm 0.00 in0.0 mm 0.00 in0.0 mm
01:14 PM 44.8°F7.1°C 20.8°F-6.2°C 38% 1.1 mph SSW1.8 kmh SSW 2.2 mph3.5 kmh 29.73 in1006.8 mb 0.00 in0.0 mm 0.00 in0.0 mm 0.00 in0.0 mm
01:15 PM 44.8°F7.1°C 20.8°F-6.2°C 38% Calm Calm 2.2 mph3.5 kmh 29.73 in1006.8 mb 0.00 in0.0 mm 0.00 in0.0 mm 0.00 in0.0 mm
01:16 PM 44.8°F7.1°C 20.8°F-6.2°C 38% Calm Calm 2.2 mph3.5 kmh 29.73 in1006.8 mb 0.00 in0.0 mm 0.00 in0.0 mm 0.00 in0.0 mm
01:17 PM 45.0°F7.2°C 20.3°F-6.5°C 37% 1.7 mph W2.7 kmh W 2.2 mph3.5 kmh 29.73 in1006.8 mb 0.00 in0.0 mm 0.00 in0.0 mm 0.00 in0.0 mm
01:18 PM 45.0°F7.2°C 19.7°F-6.8°C 36% 2.2 mph S3.5 kmh S 2.7 mph4.3 kmh 29.73 in1006.8 mb 0.00 in0.0 mm 0.00 in0.0 mm 0.00 in0.0 mm
01:19 PM 45.0°F7.2°C 19.7°F-6.8°C 36% 1.7 mph SSW2.7 kmh SSW 2.7 mph4.3 kmh 29.73 in1006.8 mb 0.00 in0.0 mm 0.00 in0.0 mm 0.00 in0.0 mm
01:20 PM 45.1°F7.3°C 20.4°F-6.4°C 37% Calm Calm 2.7 mph4.3 kmh 29.73 in1006.8 mb 0.00 in0.0 mm 0.00 in0.0 mm 0.00 in0.0 mm
01:21 PM 45.1°F7.3°C 20.4°F-6.4°C 37% 1.7 mph SSE2.7 kmh SSE 2.7 mph4.3 kmh 29.73 in1006.8 mb 0.00 in0.0 mm 0.00 in0.0 mm 0.00 in0.0 mm
01:22 PM 45.3°F7.4°C 19.9°F-6.7°C 36% 1.1 mph SSW1.8 kmh SSW 2.7 mph4.3 kmh 29.73 in1006.8 mb 0.00 in0.0 mm 0.00 in0.0 mm 0.00 in0.0 mm
01:23 PM 45.3°F7.4°C 19.9°F-6.7°C 36% 2.2 mph SE3.5 kmh SE 2.7 mph4.3 kmh 29.73 in1006.8 mb 0.00 in0.0 mm 0.00 in0.0 mm 0.00 in0.0 mm
01:24 PM 45.3°F7.4°C 19.3°F-7.1°C 35% 1.7 mph ESE2.7 kmh ESE 2.7 mph4.3 kmh 29.73 in1006.8 mb 0.00 in0.0 mm 0.00 in0.0 mm 0.00 in0.0 mm
01:25 PM 45.5°F7.5°C 19.5°F-6.9°C 35% 1.1 mph SE1.8 kmh SE 2.7 mph4.3 kmh 29.73 in1006.8 mb 0.00 in0.0 mm 0.00 in0.0 mm 0.00 in0.0 mm
01:26 PM 45.5°F7.5°C 20.1°F-6.6°C 36% Calm Calm 2.7 mph4.3 kmh 29.73 in1006.8 mb 0.00 in0.0 mm 0.00 in0.0 mm 0.00 in0.0 mm
01:27 PM 45.5°F7.5°C 20.1°F-6.6°C 36% 1.7 mph ESE2.7 kmh ESE 2.7 mph4.3 kmh 29.73 in1006.8 mb 0.00 in0.0 mm 0.00 in0.0 mm 0.00 in0.0 mm
01:28 PM 45.5°F7.5°C 20.1°F-6.6°C 36% Calm Calm 2.2 mph3.5 kmh 29.73 in1006.8 mb 0.00 in0.0 mm 0.00 in0.0 mm 0.00 in0.0 mm
01:29 PM 45.7°F7.6°C 20.3°F-6.5°C 36% Calm Calm 2.2 mph3.5 kmh 29.73 in1006.8 mb 0.00 in0.0 mm 0.00 in0.0 mm 0.00 in0.0 mm
01:30 PM 45.7°F7.6°C 20.3°F-6.5°C 36% 2.2 mph SSE3.5 kmh SSE 2.2 mph3.5 kmh 29.73 in1006.8 mb 0.00 in0.0 mm 0.00 in0.0 mm 0.00 in0.0 mm
01:31 PM 45.5°F7.5°C 19.5°F-6.9°C 35% 2.2 mph NNE3.5 kmh NNE 2.2 mph3.5 kmh 29.73 in1006.8 mb 0.00 in0.0 mm 0.00 in0.0 mm 0.00 in0.0 mm
01:32 PM 45.7°F7.6°C 20.3°F-6.5°C 36% 1.1 mph SW1.8 kmh SW 2.2 mph3.5 kmh 29.73 in1006.8 mb 0.00 in0.0 mm 0.00 in0.0 mm 0.00 in0.0 mm
01:33 PM 45.7°F7.6°C 20.3°F-6.5°C 36% Calm Calm 2.2 mph3.5 kmh 29.72 in1006.4 mb 0.00 in0.0 mm 0.00 in0.0 mm 0.00 in0.0 mm
01:34 PM 45.9°F7.7°C 21.1°F-6.1°C 37% Calm Calm 2.2 mph3.5 kmh 29.72 in1006.4 mb 0.00 in0.0 mm 0.00 in0.0 mm 0.00 in0.0 mm
01:35 PM 45.9°F7.7°C 21.1°F-6.1°C 37% Calm Calm 2.2 mph3.5 kmh 29.72 in1006.4 mb 0.00 in0.0 mm 0.00 in0.0 mm 0.00 in0.0 mm
01:36 PM 45.9°F7.7°C 21.1°F-6.1°C 37% Calm Calm 2.2 mph3.5 kmh 29.72 in1006.4 mb 0.00 in0.0 mm 0.00 in0.0 mm 0.00 in0.0 mm
01:37 PM 45.9°F7.7°C 21.1°F-6.1°C 37% Calm Calm 2.2 mph3.5 kmh 29.72 in1006.4 mb 0.00 in0.0 mm 0.00 in0.0 mm 0.00 in0.0 mm
01:38 PM 46.0°F7.8°C 21.2°F-6.0°C 37% Calm Calm 2.2 mph3.5 kmh 29.72 in1006.4 mb 0.00 in0.0 mm 0.00 in0.0 mm 0.00 in0.0 mm
01:39 PM 46.0°F7.8°C 21.2°F-6.0°C 37% Calm Calm 2.2 mph3.5 kmh 29.72 in1006.4 mb 0.00 in0.0 mm 0.00 in0.0 mm 0.00 in0.0 mm
01:40 PM 46.0°F7.8°C 20.6°F-6.3°C 36% Calm Calm 2.7 mph4.3 kmh 29.72 in1006.4 mb 0.00 in0.0 mm 0.00 in0.0 mm 0.00 in0.0 mm
01:41 PM 46.0°F7.8°C 20.6°F-6.3°C 36% 1.1 mph ESE1.8 kmh ESE 2.7 mph4.3 kmh 29.72 in1006.4 mb 0.00 in0.0 mm 0.00 in0.0 mm 0.00 in0.0 mm
01:42 PM 46.2°F7.9°C 20.7°F-6.3°C 36% 2.2 mph ESE3.5 kmh ESE 2.7 mph4.3 kmh 29.72 in1006.4 mb 0.00 in0.0 mm 0.00 in0.0 mm 0.00 in0.0 mm
01:43 PM 46.2°F7.9°C 20.1°F-6.6°C 35% 1.1 mph WNW1.8 kmh WNW 2.7 mph4.3 kmh 29.72 in1006.4 mb 0.00 in0.0 mm 0.00 in0.0 mm 0.00 in0.0 mm
01:44 PM 46.2°F7.9°C 20.1°F-6.6°C 35% Calm Calm 2.7 mph4.3 kmh 29.72 in1006.4 mb 0.00 in0.0 mm 0.00 in0.0 mm 0.00 in0.0 mm
01:45 PM 46.2°F7.9°C 20.1°F-6.6°C 35% Calm Calm 2.7 mph4.3 kmh 29.71 in1006.1 mb 0.00 in0.0 mm 0.00 in0.0 mm 0.00 in0.0 mm
01:46 PM 46.2°F7.9°C 20.7°F-6.3°C 36% Calm Calm 2.7 mph4.3 kmh 29.71 in1006.1 mb 0.00 in0.0 mm 0.00 in0.0 mm 0.00 in0.0 mm
01:47 PM 46.2°F7.9°C 20.7°F-6.3°C 36% Calm Calm 2.7 mph4.3 kmh 29.71 in1006.1 mb 0.00 in0.0 mm 0.00 in0.0 mm 0.00 in0.0 mm
01:48 PM 46.2°F7.9°C 20.7°F-6.3°C 36% 1.1 mph SSW1.8 kmh SSW 2.7 mph4.3 kmh 29.71 in1006.1 mb 0.00 in0.0 mm 0.00 in0.0 mm 0.00 in0.0 mm
01:49 PM 46.2°F7.9°C 20.7°F-6.3°C 36% 1.1 mph SW1.8 kmh SW 2.7 mph4.3 kmh 29.71 in1006.1 mb 0.00 in0.0 mm 0.00 in0.0 mm 0.00 in0.0 mm
01:50 PM 46.2°F7.9°C 20.7°F-6.3°C 36% Calm Calm 2.2 mph3.5 kmh 29.71 in1006.1 mb 0.00 in0.0 mm 0.00 in0.0 mm 0.00 in0.0 mm
01:51 PM 46.2°F7.9°C 20.7°F-6.3°C 36% Calm Calm 2.2 mph3.5 kmh 29.71 in1006.1 mb 0.00 in0.0 mm 0.00 in0.0 mm 0.00 in0.0 mm
01:52 PM 46.2°F7.9°C 20.7°F-6.3°C 36% Calm Calm 1.7 mph2.7 kmh 29.71 in1006.1 mb 0.00 in0.0 mm 0.00 in0.0 mm 0.00 in0.0 mm
01:53 PM 46.2°F7.9°C 20.7°F-6.3°C 36% Calm Calm 1.1 mph1.8 kmh 29.71 in1006.1 mb 0.00 in0.0 mm 0.00 in0.0 mm 0.00 in0.0 mm
01:54 PM 46.2°F7.9°C 20.7°F-6.3°C 36% Calm Calm 1.1 mph1.8 kmh 29.71 in1006.1 mb 0.00 in0.0 mm 0.00 in0.0 mm 0.00 in0.0 mm
01:55 PM 46.2°F7.9°C 20.7°F-6.3°C 36% Calm Calm 1.1 mph1.8 kmh 29.71 in1006.1 mb 0.00 in0.0 mm 0.00 in0.0 mm 0.00 in0.0 mm
01:56 PM 46.2°F7.9°C 20.7°F-6.3°C 36% 1.1 mph SSW1.8 kmh SSW 1.7 mph2.7 kmh 29.71 in1006.1 mb 0.00 in0.0 mm 0.00 in0.0 mm 0.00 in0.0 mm
01:57 PM 46.4°F8.0°C 20.9°F-6.2°C 36% Calm Calm 1.7 mph2.7 kmh 29.71 in1006.1 mb 0.00 in0.0 mm 0.00 in0.0 mm 0.00 in0.0 mm
01:58 PM 46.4°F8.0°C 20.9°F-6.2°C 36% Calm Calm 1.7 mph2.7 kmh 29.71 in1006.1 mb 0.00 in0.0 mm 0.00 in0.0 mm 0.00 in0.0 mm
01:59 PM 46.4°F8.0°C 20.9°F-6.2°C 36% 1.7 mph SSW2.7 kmh SSW 1.7 mph2.7 kmh 29.71 in1006.1 mb 0.00 in0.0 mm 0.00 in0.0 mm 0.00 in0.0 mm
02:00 PM 46.6°F8.1°C 21.1°F-6.1°C 36% 1.1 mph SSW1.8 kmh SSW 1.7 mph2.7 kmh 29.71 in1006.1 mb 0.00 in0.0 mm 0.00 in0.0 mm 0.00 in0.0 mm
02:01 PM 46.8°F8.2°C 21.3°F-5.9°C 36% Calm Calm 1.7 mph2.7 kmh 29.71 in1006.1 mb 0.00 in0.0 mm 0.00 in0.0 mm 0.00 in0.0 mm
02:02 PM 46.8°F8.2°C 21.3°F-5.9°C 36% 1.1 mph S1.8 kmh S 1.7 mph2.7 kmh 29.71 in1006.1 mb 0.00 in0.0 mm 0.00 in0.0 mm 0.00 in0.0 mm
02:03 PM 46.9°F8.3°C 21.4°F-5.9°C 36% 1.7 mph NW2.7 kmh NW 1.7 mph2.7 kmh 29.71 in1006.1 mb 0.00 in0.0 mm 0.00 in0.0 mm 0.00 in0.0 mm
02:04 PM 46.9°F8.3°C 21.4°F-5.9°C 36% Calm Calm 1.7 mph2.7 kmh 29.71 in1006.1 mb 0.00 in0.0 mm 0.00 in0.0 mm 0.00 in0.0 mm
02:05 PM 46.9°F8.3°C 21.4°F-5.9°C 36% Calm Calm 1.7 mph2.7 kmh 29.71 in1006.1 mb 0.00 in0.0 mm 0.00 in0.0 mm 0.00 in0.0 mm
02:06 PM 46.9°F8.3°C 20.7°F-6.3°C 35% Calm Calm 1.7 mph2.7 kmh 29.71 in1006.1 mb 0.00 in0.0 mm 0.00 in0.0 mm 0.00 in0.0 mm
02:07 PM 46.9°F8.3°C 20.7°F-6.3°C 35% 1.7 mph NNE2.7 kmh NNE 1.7 mph2.7 kmh 29.71 in1006.1 mb 0.00 in0.0 mm 0.00 in0.0 mm 0.00 in0.0 mm
02:08 PM 46.9°F8.3°C 20.0°F-6.7°C 34% Calm Calm 1.7 mph2.7 kmh 29.71 in1006.1 mb 0.00 in0.0 mm 0.00 in0.0 mm 0.00 in0.0 mm
02:09 PM 46.9°F8.3°C 20.7°F-6.3°C 35% 1.1 mph SSW1.8 kmh SSW 1.7 mph2.7 kmh 29.71 in1006.1 mb 0.00 in0.0 mm 0.00 in0.0 mm 0.00 in0.0 mm
02:10 PM 47.1°F8.4°C 20.9°F-6.2°C 35% 1.7 mph SSW2.7 kmh SSW 2.2 mph3.5 kmh 29.71 in1006.1 mb 0.00 in0.0 mm 0.00 in0.0 mm 0.00 in0.0 mm
02:11 PM 47.1°F8.4°C 20.9°F-6.2°C 35% 1.7 mph S2.7 kmh S 2.2 mph3.5 kmh 29.71 in1006.1 mb 0.00 in0.0 mm 0.00 in0.0 mm 0.00 in0.0 mm
02:12 PM 47.3°F8.5°C 21.1°F-6.1°C 35% Calm Calm 2.2 mph3.5 kmh 29.71 in1006.1 mb 0.00 in0.0 mm 0.00 in0.0 mm 0.00 in0.0 mm
02:13 PM 47.3°F8.5°C 21.1°F-6.1°C 35% Calm Calm 2.2 mph3.5 kmh 29.71 in1006.1 mb 0.00 in0.0 mm 0.00 in0.0 mm 0.00 in0.0 mm
02:14 PM 47.3°F8.5°C 21.1°F-6.1°C 35% 1.7 mph NNW2.7 kmh NNW 2.2 mph3.5 kmh 29.71 in1006.1 mb 0.00 in0.0 mm 0.00 in0.0 mm 0.00 in0.0 mm
02:15 PM 47.3°F8.5°C 21.1°F-6.1°C 35% Calm Calm 2.2 mph3.5 kmh 29.71 in1006.1 mb 0.00 in0.0 mm 0.00 in0.0 mm 0.00 in0.0 mm
02:16 PM 47.3°F8.5°C 21.1°F-6.1°C 35% Calm Calm 2.2 mph3.5 kmh 29.71 in1006.1 mb 0.00 in0.0 mm 0.00 in0.0 mm 0.00 in0.0 mm
02:17 PM 47.5°F8.6°C 20.5°F-6.4°C 34% 1.1 mph NNE1.8 kmh NNE 2.2 mph3.5 kmh 29.71 in1006.1 mb 0.00 in0.0 mm 0.00 in0.0 mm 0.00 in0.0 mm
02:18 PM 47.5°F8.6°C 20.5°F-6.4°C 34% 1.7 mph SSW2.7 kmh SSW 2.2 mph3.5 kmh 29.71 in1006.1 mb 0.00 in0.0 mm 0.00 in0.0 mm 0.00 in0.0 mm
02:19 PM 47.7°F8.7°C 20.7°F-6.3°C 34% Calm Calm 2.2 mph3.5 kmh 29.71 in1006.1 mb 0.00 in0.0 mm 0.00 in0.0 mm 0.00 in0.0 mm
02:20 PM 47.7°F8.7°C 20.7°F-6.3°C 34% Calm Calm 1.7 mph2.7 kmh 29.71 in1006.1 mb 0.00 in0.0 mm 0.00 in0.0 mm 0.00 in0.0 mm
02:21 PM 47.7°F8.7°C 20.7°F-6.3°C 34% Calm Calm 1.7 mph2.7 kmh 29.71 in1006.1 mb 0.00 in0.0 mm 0.00 in0.0 mm 0.00 in0.0 mm
02:22 PM 47.7°F8.7°C 20.7°F-6.3°C 34% Calm Calm 1.7 mph2.7 kmh 29.70 in1005.8 mb 0.00 in0.0 mm 0.00 in0.0 mm 0.00 in0.0 mm
02:23 PM 47.7°F8.7°C 20.7°F-6.3°C 34% Calm Calm 1.7 mph2.7 kmh 29.70 in1005.8 mb 0.00 in0.0 mm 0.00 in0.0 mm 0.00 in0.0 mm
02:24 PM 47.8°F8.8°C 20.8°F-6.2°C 34% 1.1 mph SSW1.8 kmh SSW 1.7 mph2.7 kmh 29.70 in1005.8 mb 0.00 in0.0 mm 0.00 in0.0 mm 0.00 in0.0 mm
02:25 PM 47.8°F8.8°C 20.8°F-6.2°C 34% 1.7 mph SSW2.7 kmh SSW 1.7 mph2.7 kmh 29.70 in1005.8 mb 0.00 in0.0 mm 0.00 in0.0 mm 0.00 in0.0 mm
02:26 PM 47.8°F8.8°C 20.8°F-6.2°C 34% 1.1 mph W1.8 kmh W 1.7 mph2.7 kmh 29.70 in1005.8 mb 0.00 in0.0 mm 0.00 in0.0 mm 0.00 in0.0 mm
02:27 PM 47.8°F8.8°C 20.8°F-6.2°C 34% Calm Calm 1.7 mph2.7 kmh 29.70 in1005.8 mb 0.00 in0.0 mm 0.00 in0.0 mm 0.00 in0.0 mm
02:28 PM 47.8°F8.8°C 20.8°F-6.2°C 34% Calm Calm 1.7 mph2.7 kmh 29.70 in1005.8 mb 0.00 in0.0 mm 0.00 in0.0 mm 0.00 in0.0 mm
02:29 PM 47.8°F8.8°C 20.8°F-6.2°C 34% Calm Calm 1.7 mph2.7 kmh 29.70 in1005.8 mb 0.00 in0.0 mm 0.00 in0.0 mm 0.00 in0.0 mm
02:30 PM 47.8°F8.8°C 20.8°F-6.2°C 34% 1.1 mph SSW1.8 kmh SSW 1.7 mph2.7 kmh 29.70 in1005.8 mb 0.00 in0.0 mm 0.00 in0.0 mm 0.00 in0.0 mm
02:31 PM 48.0°F8.9°C 20.3°F-6.5°C 33% 1.7 mph NNE2.7 kmh NNE 1.7 mph2.7 kmh 29.70 in1005.8 mb 0.00 in0.0 mm 0.00 in0.0 mm 0.00 in0.0 mm
02:32 PM 48.0°F8.9°C 20.3°F-6.5°C 33% 1.1 mph W1.8 kmh W 1.7 mph2.7 kmh 29.70 in1005.8 mb 0.00 in0.0 mm 0.00 in0.0 mm 0.00 in0.0 mm
02:33 PM 48.0°F8.9°C 20.3°F-6.5°C 33% 1.7 mph WSW2.7 kmh WSW 1.7 mph2.7 kmh 29.70 in1005.8 mb 0.00 in0.0 mm 0.00 in0.0 mm 0.00 in0.0 mm
02:34 PM 48.2°F9.0°C 20.5°F-6.4°C 33% Calm Calm 1.7 mph2.7 kmh 29.70 in1005.8 mb 0.00 in0.0 mm 0.00 in0.0 mm 0.00 in0.0 mm
02:35 PM 48.2°F9.0°C 20.5°F-6.4°C 33% Calm Calm 1.7 mph2.7 kmh 29.70 in1005.8 mb 0.00 in0.0 mm 0.00 in0.0 mm 0.00 in0.0 mm
02:36 PM 48.2°F9.0°C 20.5°F-6.4°C 33% Calm Calm 1.7 mph2.7 kmh 29.70 in1005.8 mb 0.00 in0.0 mm 0.00 in0.0 mm 0.00 in0.0 mm
02:37 PM 48.2°F9.0°C 20.5°F-6.4°C 33% Calm Calm 1.7 mph2.7 kmh 29.70 in1005.8 mb 0.00 in0.0 mm 0.00 in0.0 mm 0.00 in0.0 mm
02:38 PM 48.2°F9.0°C 20.5°F-6.4°C 33% Calm Calm 1.7 mph2.7 kmh 29.70 in1005.8 mb 0.00 in0.0 mm 0.00 in0.0 mm 0.00 in0.0 mm
02:39 PM 48.4°F9.1°C 20.6°F-6.3°C 33% Calm Calm 1.7 mph2.7 kmh 29.70 in1005.8 mb 0.00 in0.0 mm 0.00 in0.0 mm 0.00 in0.0 mm
02:40 PM 48.7°F9.3°C 20.9°F-6.2°C 33% Calm Calm 1.7 mph2.7 kmh 29.70 in1005.8 mb 0.00 in0.0 mm 0.00 in0.0 mm 0.00 in0.0 mm
02:41 PM 48.9°F9.4°C 21.1°F-6.1°C 33% Calm Calm 1.7 mph2.7 kmh 29.70 in1005.8 mb 0.00 in0.0 mm 0.00 in0.0 mm 0.00 in0.0 mm
02:42 PM 49.1°F9.5°C 21.3°F-5.9°C 33% Calm Calm 1.7 mph2.7 kmh 29.70 in1005.8 mb 0.00 in0.0 mm 0.00 in0.0 mm 0.00 in0.0 mm
02:43 PM 49.3°F9.6°C 21.4°F-5.9°C 33% Calm Calm 1.7 mph2.7 kmh 29.70 in1005.8 mb 0.00 in0.0 mm 0.00 in0.0 mm 0.00 in0.0 mm
02:44 PM 49.5°F9.7°C 22.3°F-5.4°C 34% Calm Calm -- 29.70 in1005.8 mb 0.00 in0.0 mm 0.00 in0.0 mm 0.00 in0.0 mm
02:45 PM 49.8°F9.9°C 22.6°F-5.2°C 34% Calm Calm -- 29.70 in1005.8 mb 0.00 in0.0 mm 0.00 in0.0 mm 0.00 in0.0 mm
02:46 PM 49.8°F9.9°C 21.9°F-5.6°C 33% Calm Calm -- 29.69 in1005.4 mb 0.00 in0.0 mm 0.00 in0.0 mm 0.00 in0.0 mm
02:47 PM 50.0°F10.0°C 22.0°F-5.6°C 33% Calm Calm -- 29.69 in1005.4 mb 0.00 in0.0 mm 0.00 in0.0 mm 0.00 in0.0 mm
02:48 PM 50.5°F10.3°C 21.8°F-5.7°C 32% Calm Calm -- 29.69 in1005.4 mb 0.00 in0.0 mm 0.00 in0.0 mm 0.00 in0.0 mm
02:49 PM 50.7°F10.4°C 21.9°F-5.6°C 32% 1.1 mph WSW1.8 kmh WSW 1.1 mph1.8 kmh 29.69 in1005.4 mb 0.00 in0.0 mm 0.00 in0.0 mm 0.00 in0.0 mm
02:50 PM 51.1°F10.6°C 22.3°F-5.4°C 32% 1.1 mph SW1.8 kmh SW 1.7 mph2.7 kmh 29.69 in1005.4 mb 0.00 in0.0 mm 0.00 in0.0 mm 0.00 in0.0 mm
02:51 PM 50.9°F10.5°C 20.6°F-6.3°C 30% Calm Calm 1.7 mph2.7 kmh 29.69 in1005.4 mb 0.00 in0.0 mm 0.00 in0.0 mm 0.00 in0.0 mm
02:52 PM 50.9°F10.5°C 20.6°F-6.3°C 30% Calm Calm 1.7 mph2.7 kmh 29.69 in1005.4 mb 0.00 in0.0 mm 0.00 in0.0 mm 0.00 in0.0 mm
02:53 PM 51.6°F10.9°C 22.0°F-5.6°C 31% Calm Calm 1.7 mph2.7 kmh 29.69 in1005.4 mb 0.00 in0.0 mm 0.00 in0.0 mm 0.00 in0.0 mm
02:54 PM 51.3°F10.7°C 21.7°F-5.7°C 31% Calm Calm 1.7 mph2.7 kmh 29.69 in1005.4 mb 0.00 in0.0 mm 0.00 in0.0 mm 0.00 in0.0 mm
02:55 PM 51.8°F11.0°C 22.1°F-5.5°C 31% Calm Calm 1.7 mph2.7 kmh 29.69 in1005.4 mb 0.00 in0.0 mm 0.00 in0.0 mm 0.00 in0.0 mm
02:56 PM 52.3°F11.3°C 21.8°F-5.7°C 30% 1.7 mph SW2.7 kmh SW 1.7 mph2.7 kmh 29.69 in1005.4 mb 0.00 in0.0 mm 0.00 in0.0 mm 0.00 in0.0 mm
02:57 PM 51.8°F11.0°C 21.4°F-5.9°C 30% 1.1 mph NNW1.8 kmh NNW 1.7 mph2.7 kmh 29.69 in1005.4 mb 0.00 in0.0 mm 0.00 in0.0 mm 0.00 in0.0 mm
02:58 PM 51.3°F10.7°C 20.9°F-6.2°C 30% Calm Calm 1.7 mph2.7 kmh 29.69 in1005.4 mb 0.00 in0.0 mm 0.00 in0.0 mm 0.00 in0.0 mm
02:59 PM 50.7°F10.4°C 20.4°F-6.4°C 30% Calm Calm 1.7 mph2.7 kmh 29.69 in1005.4 mb 0.00 in0.0 mm 0.00 in0.0 mm 0.00 in0.0 mm
03:00 PM 50.5°F10.3°C 20.2°F-6.6°C 30% Calm Calm 1.7 mph2.7 kmh 29.69 in1005.4 mb 0.00 in0.0 mm 0.00 in0.0 mm 0.00 in0.0 mm
03:01 PM 50.5°F10.3°C 20.2°F-6.6°C 30% Calm Calm 1.7 mph2.7 kmh 29.69 in1005.4 mb 0.00 in0.0 mm 0.00 in0.0 mm 0.00 in0.0 mm
03:02 PM 51.1°F10.6°C 20.8°F-6.2°C 30% Calm Calm 1.7 mph2.7 kmh 29.69 in1005.4 mb 0.00 in0.0 mm 0.00 in0.0 mm 0.00 in0.0 mm
03:03 PM 51.3°F10.7°C 20.9°F-6.2°C 30% Calm Calm 1.7 mph2.7 kmh 29.69 in1005.4 mb 0.00 in0.0 mm 0.00 in0.0 mm 0.00 in0.0 mm
03:04 PM 52.0°F11.1°C 21.5°F-5.8°C 30% Calm Calm 1.7 mph2.7 kmh 29.69 in1005.4 mb 0.00 in0.0 mm 0.00 in0.0 mm 0.00 in0.0 mm
03:05 PM 51.6°F10.9°C 20.4°F-6.4°C 29% Calm Calm 1.7 mph2.7 kmh 29.69 in1005.4 mb 0.00 in0.0 mm 0.00 in0.0 mm 0.00 in0.0 mm
03:06 PM 51.6°F10.9°C 20.4°F-6.4°C 29% Calm Calm 1.1 mph1.8 kmh 29.69 in1005.4 mb 0.00 in0.0 mm 0.00 in0.0 mm 0.00 in0.0 mm
03:07 PM 51.8°F11.0°C 20.6°F-6.3°C 29% 1.1 mph NNW1.8 kmh NNW 1.7 mph2.7 kmh 29.69 in1005.4 mb 0.00 in0.0 mm 0.00 in0.0 mm 0.00 in0.0 mm
03:08 PM 51.8°F11.0°C 20.6°F-6.3°C 29% Calm Calm 1.7 mph2.7 kmh 29.69 in1005.4 mb 0.00 in0.0 mm 0.00 in0.0 mm 0.00 in0.0 mm
03:09 PM 52.2°F11.2°C 20.9°F-6.2°C 29% Calm Calm 1.7 mph2.7 kmh 29.69 in1005.4 mb 0.00 in0.0 mm 0.00 in0.0 mm 0.00 in0.0 mm
03:10 PM 53.6°F12.0°C 22.1°F-5.5°C 29% 1.7 mph SSW2.7 kmh SSW 1.7 mph2.7 kmh 29.68 in1005.1 mb 0.00 in0.0 mm 0.00 in0.0 mm 0.00 in0.0 mm
03:11 PM 52.9°F11.6°C 21.5°F-5.8°C 29% Calm Calm 1.7 mph2.7 kmh 29.68 in1005.1 mb 0.00 in0.0 mm 0.00 in0.0 mm 0.00 in0.0 mm
03:12 PM 52.3°F11.3°C 21.0°F-6.1°C 29% Calm Calm 1.7 mph2.7 kmh 29.68 in1005.1 mb 0.00 in0.0 mm 0.00 in0.0 mm 0.00 in0.0 mm
03:13 PM 51.6°F10.9°C 20.4°F-6.4°C 29% Calm Calm 1.7 mph2.7 kmh 29.68 in1005.1 mb 0.00 in0.0 mm 0.00 in0.0 mm 0.00 in0.0 mm
03:14 PM 51.4°F10.8°C 20.2°F-6.6°C 29% 1.7 mph N2.7 kmh N 1.7 mph2.7 kmh 29.68 in1005.1 mb 0.00 in0.0 mm 0.00 in0.0 mm 0.00 in0.0 mm
03:15 PM 51.8°F11.0°C 20.6°F-6.3°C 29% Calm Calm 1.7 mph2.7 kmh 29.68 in1005.1 mb 0.00 in0.0 mm 0.00 in0.0 mm 0.00 in0.0 mm
03:16 PM 52.3°F11.3°C 21.0°F-6.1°C 29% Calm Calm 1.7 mph2.7 kmh 29.68 in1005.1 mb 0.00 in0.0 mm 0.00 in0.0 mm 0.00 in0.0 mm
03:17 PM 52.5°F11.4°C 21.2°F-6.0°C 29% Calm Calm 1.7 mph2.7 kmh 29.68 in1005.1 mb 0.00 in0.0 mm 0.00 in0.0 mm 0.00 in0.0 mm
03:18 PM 52.7°F11.5°C 21.4°F-5.9°C 29% Calm Calm 1.7 mph2.7 kmh 29.68 in1005.1 mb 0.00 in0.0 mm 0.00 in0.0 mm 0.00 in0.0 mm
03:19 PM 53.6°F12.0°C 22.1°F-5.5°C 29% Calm Calm 1.7 mph2.7 kmh 29.68 in1005.1 mb 0.00 in0.0 mm 0.00 in0.0 mm 0.00 in0.0 mm
03:20 PM 54.0°F12.2°C 21.6°F-5.8°C 28% Calm Calm 1.7 mph2.7 kmh 29.68 in1005.1 mb 0.00 in0.0 mm 0.00 in0.0 mm 0.00 in0.0 mm
03:21 PM 53.2°F11.8°C 21.0°F-6.1°C 28% Calm Calm 1.7 mph2.7 kmh 29.68 in1005.1 mb 0.00 in0.0 mm 0.00 in0.0 mm 0.00 in0.0 mm
03:22 PM 52.7°F11.5°C 21.4°F-5.9°C 29% Calm Calm 1.7 mph2.7 kmh 29.68 in1005.1 mb 0.00 in0.0 mm 0.00 in0.0 mm 0.00 in0.0 mm
03:23 PM 52.7°F11.5°C 21.4°F-5.9°C 29% 1.1 mph WSW1.8 kmh WSW 1.7 mph2.7 kmh 29.68 in1005.1 mb 0.00 in0.0 mm 0.00 in0.0 mm 0.00 in0.0 mm
03:24 PM 52.0°F11.1°C 20.7°F-6.3°C 29% Calm Calm 1.7 mph2.7 kmh 29.68 in1005.1 mb 0.00 in0.0 mm 0.00 in0.0 mm 0.00 in0.0 mm
03:25 PM 52.0°F11.1°C 20.7°F-6.3°C 29% Calm Calm 1.1 mph1.8 kmh 29.68 in1005.1 mb 0.00 in0.0 mm 0.00 in0.0 mm 0.00 in0.0 mm
03:26 PM 52.0°F11.1°C 19.9°F-6.7°C 28% Calm Calm 1.1 mph1.8 kmh 29.68 in1005.1 mb 0.00 in0.0 mm 0.00 in0.0 mm 0.00 in0.0 mm
03:27 PM 51.6°F10.9°C 19.6°F-6.9°C 28% Calm Calm 1.1 mph1.8 kmh 29.68 in1005.1 mb 0.00 in0.0 mm 0.00 in0.0 mm 0.00 in0.0 mm
03:28 PM 51.6°F10.9°C 19.6°F-6.9°C 28% Calm Calm 1.1 mph1.8 kmh 29.68 in1005.1 mb 0.00 in0.0 mm 0.00 in0.0 mm 0.00 in0.0 mm
03:29 PM 51.6°F10.9°C 19.6°F-6.9°C 28% Calm Calm 1.1 mph1.8 kmh 29.68 in1005.1 mb 0.00 in0.0 mm 0.00 in0.0 mm 0.00 in0.0 mm
03:30 PM 52.0°F11.1°C 20.7°F-6.3°C 29% Calm Calm 1.1 mph1.8 kmh 29.68 in1005.1 mb 0.00 in0.0 mm 0.00 in0.0 mm 0.00 in0.0 mm
03:31 PM 52.2°F11.2°C 20.9°F-6.2°C 29% Calm Calm 1.1 mph1.8 kmh 29.68 in1005.1 mb 0.00 in0.0 mm 0.00 in0.0 mm 0.00 in0.0 mm
03:32 PM 52.5°F11.4°C 21.2°F-6.0°C 29% Calm Calm 1.1 mph1.8 kmh 29.68 in1005.1 mb 0.00 in0.0 mm 0.00 in0.0 mm 0.00 in0.0 mm
03:33 PM 52.5°F11.4°C 20.4°F-6.4°C 28% Calm Calm -- 29.68 in1005.1 mb 0.00 in0.0 mm 0.00 in0.0 mm 0.00 in0.0 mm
03:34 PM 52.5°F11.4°C 20.4°F-6.4°C 28% Calm Calm -- 29.68 in1005.1 mb 0.00 in0.0 mm 0.00 in0.0 mm 0.00 in0.0 mm
03:35 PM 53.1°F11.7°C 20.9°F-6.2°C 28% Calm Calm -- 29.68 in1005.1 mb 0.00 in0.0 mm 0.00 in0.0 mm 0.00 in0.0 mm
03:36 PM 52.9°F11.6°C 20.7°F-6.3°C 28% Calm Calm -- 29.68 in1005.1 mb 0.00 in0.0 mm 0.00 in0.0 mm 0.00 in0.0 mm
03:37 PM 52.9°F11.6°C 20.7°F-6.3°C 28% Calm Calm -- 29.68 in1005.1 mb 0.00 in0.0 mm 0.00 in0.0 mm 0.00 in0.0 mm
03:38 PM 52.3°F11.3°C 20.2°F-6.6°C 28% Calm Calm -- 29.68 in1005.1 mb 0.00 in0.0 mm 0.00 in0.0 mm 0.00 in0.0 mm
03:39 PM 52.2°F11.2°C 20.1°F-6.6°C 28% Calm Calm -- 29.68 in1005.1 mb 0.00 in0.0 mm 0.00 in0.0 mm 0.00 in0.0 mm
03:40 PM 52.2°F11.2°C 20.1°F-6.6°C 28% Calm Calm -- 29.68 in1005.1 mb 0.00 in0.0 mm 0.00 in0.0 mm 0.00 in0.0 mm
03:41 PM 52.7°F11.5°C 21.4°F-5.9°C 29% Calm Calm -- 29.68 in1005.1 mb 0.00 in0.0 mm 0.00 in0.0 mm 0.00 in0.0 mm
03:42 PM 52.3°F11.3°C 21.0°F-6.1°C 29% Calm Calm -- 29.68 in1005.1 mb 0.00 in0.0 mm 0.00 in0.0 mm 0.00 in0.0 mm
03:43 PM 52.3°F11.3°C 20.2°F-6.6°C 28% 1.7 mph SSE2.7 kmh SSE 1.7 mph2.7 kmh 29.68 in1005.1 mb 0.00 in0.0 mm 0.00 in0.0 mm 0.00 in0.0 mm
03:44 PM 52.9°F11.6°C 19.8°F-6.8°C 27% 1.1 mph SSW1.8 kmh SSW 1.7 mph2.7 kmh 29.68 in1005.1 mb 0.00 in0.0 mm 0.00 in0.0 mm 0.00 in0.0 mm
03:45 PM 53.2°F11.8°C 20.1°F-6.6°C 27% Calm Calm 1.7 mph2.7 kmh 29.68 in1005.1 mb 0.00 in0.0 mm 0.00 in0.0 mm 0.00 in0.0 mm
03:46 PM 53.1°F11.7°C 20.0°F-6.7°C 27% Calm Calm 1.7 mph2.7 kmh 29.68 in1005.1 mb 0.00 in0.0 mm 0.00 in0.0 mm 0.00 in0.0 mm
03:47 PM 53.4°F11.9°C 20.3°F-6.5°C 27% Calm Calm 1.7 mph2.7 kmh 29.68 in1005.1 mb 0.00 in0.0 mm 0.00 in0.0 mm 0.00 in0.0 mm
03:48 PM 53.2°F11.8°C 20.1°F-6.6°C 27% Calm Calm 1.7 mph2.7 kmh 29.68 in1005.1 mb 0.00 in0.0 mm 0.00 in0.0 mm 0.00 in0.0 mm
03:49 PM 53.6°F12.0°C 20.4°F-6.4°C 27% 1.7 mph S2.7 kmh S 1.7 mph2.7 kmh 29.68 in1005.1 mb 0.00 in0.0 mm 0.00 in0.0 mm 0.00 in0.0 mm
03:50 PM 52.7°F11.5°C 19.7°F-6.8°C 27% Calm Calm 1.7 mph2.7 kmh 29.68 in1005.1 mb 0.00 in0.0 mm 0.00 in0.0 mm 0.00 in0.0 mm
03:51 PM 52.3°F11.3°C 20.2°F-6.6°C 28% Calm Calm 1.7 mph2.7 kmh 29.68 in1005.1 mb 0.00 in0.0 mm 0.00 in0.0 mm 0.00 in0.0 mm
03:52 PM 52.2°F11.2°C 20.1°F-6.6°C 28% Calm Calm 1.7 mph2.7 kmh 29.68 in1005.1 mb 0.00 in0.0 mm 0.00 in0.0 mm 0.00 in0.0 mm
03:53 PM 52.3°F11.3°C 20.2°F-6.6°C 28% Calm Calm 1.7 mph2.7 kmh 29.68 in1005.1 mb 0.00 in0.0 mm 0.00 in0.0 mm 0.00 in0.0 mm
03:54 PM 52.9°F11.6°C 20.7°F-6.3°C 28% Calm Calm 1.7 mph2.7 kmh 29.68 in1005.1 mb 0.00 in0.0 mm 0.00 in0.0 mm 0.00 in0.0 mm
03:55 PM 53.1°F11.7°C 20.9°F-6.2°C 28% Calm Calm 1.7 mph2.7 kmh 29.68 in1005.1 mb 0.00 in0.0 mm 0.00 in0.0 mm 0.00 in0.0 mm
03:56 PM 52.3°F11.3°C 20.2°F-6.6°C 28% Calm Calm 1.7 mph2.7 kmh 29.68 in1005.1 mb 0.00 in0.0 mm 0.00 in0.0 mm 0.00 in0.0 mm
03:57 PM 52.2°F11.2°C 20.1°F-6.6°C 28% Calm Calm 1.7 mph2.7 kmh 29.68 in1005.1 mb 0.00 in0.0 mm 0.00 in0.0 mm 0.00 in0.0 mm
03:58 PM 52.3°F11.3°C 20.2°F-6.6°C 28% Calm Calm 1.7 mph2.7 kmh 29.68 in1005.1 mb 0.00 in0.0 mm 0.00 in0.0 mm 0.00 in0.0 mm
03:59 PM 52.3°F11.3°C 20.2°F-6.6°C 28% Calm Calm 1.1 mph1.8 kmh 29.68 in1005.1 mb 0.00 in0.0 mm 0.00 in0.0 mm 0.00 in0.0 mm
04:00 PM 52.2°F11.2°C 20.1°F-6.6°C 28% Calm Calm 1.1 mph1.8 kmh 29.68 in1005.1 mb 0.00 in0.0 mm 0.00 in0.0 mm 0.00 in0.0 mm
04:01 PM 52.3°F11.3°C 21.0°F-6.1°C 29% Calm Calm 1.1 mph1.8 kmh 29.68 in1005.1 mb 0.00 in0.0 mm 0.00 in0.0 mm 0.00 in0.0 mm
04:02 PM 52.5°F11.4°C 21.2°F-6.0°C 29% Calm Calm 1.1 mph1.8 kmh 29.68 in1005.1 mb 0.00 in0.0 mm 0.00 in0.0 mm 0.00 in0.0 mm
04:03 PM 52.3°F11.3°C 21.0°F-6.1°C 29% 1.1 mph W1.8 kmh W 1.7 mph2.7 kmh 29.68 in1005.1 mb 0.00 in0.0 mm 0.00 in0.0 mm 0.00 in0.0 mm
04:04 PM 52.2°F11.2°C 20.9°F-6.2°C 29% Calm Calm 1.7 mph2.7 kmh 29.68 in1005.1 mb 0.00 in0.0 mm 0.00 in0.0 mm 0.00 in0.0 mm
04:05 PM 52.2°F11.2°C 20.9°F-6.2°C 29% Calm Calm 1.7 mph2.7 kmh 29.68 in1005.1 mb 0.00 in0.0 mm 0.00 in0.0 mm 0.00 in0.0 mm
04:06 PM 52.0°F11.1°C 20.7°F-6.3°C 29% Calm Calm 1.7 mph2.7 kmh 29.68 in1005.1 mb 0.00 in0.0 mm 0.00 in0.0 mm 0.00 in0.0 mm
04:07 PM 51.6°F10.9°C 20.4°F-6.4°C 29% Calm Calm 1.7 mph2.7 kmh 29.68 in1005.1 mb 0.00 in0.0 mm 0.00 in0.0 mm 0.00 in0.0 mm
04:08 PM 51.6°F10.9°C 20.4°F-6.4°C 29% Calm Calm 1.7 mph2.7 kmh 29.68 in1005.1 mb 0.00 in0.0 mm 0.00 in0.0 mm 0.00 in0.0 mm
04:09 PM 51.4°F10.8°C 19.4°F-7.0°C 28% 1.1 mph SW1.8 kmh SW 1.7 mph2.7 kmh 29.68 in1005.1 mb 0.00 in0.0 mm 0.00 in0.0 mm 0.00 in0.0 mm
04:10 PM 51.3°F10.7°C 19.3°F-7.1°C 28% Calm Calm 1.7 mph2.7 kmh 29.68 in1005.1 mb 0.00 in0.0 mm 0.00 in0.0 mm 0.00 in0.0 mm
04:11 PM 51.1°F10.6°C 20.0°F-6.7°C 29% Calm Calm 1.7 mph2.7 kmh 29.68 in1005.1 mb 0.00 in0.0 mm 0.00 in0.0 mm 0.00 in0.0 mm
04:12 PM 51.1°F10.6°C 20.0°F-6.7°C 29% Calm Calm 1.7 mph2.7 kmh 29.68 in1005.1 mb 0.00 in0.0 mm 0.00 in0.0 mm 0.00 in0.0 mm
04:13 PM 51.4°F10.8°C 20.2°F-6.6°C 29% Calm Calm 1.1 mph1.8 kmh 29.68 in1005.1 mb 0.00 in0.0 mm 0.00 in0.0 mm 0.00 in0.0 mm
04:14 PM 52.2°F11.2°C 20.9°F-6.2°C 29% 1.1 mph SW1.8 kmh SW 1.1 mph1.8 kmh 29.68 in1005.1 mb 0.00 in0.0 mm 0.00 in0.0 mm 0.00 in0.0 mm
04:15 PM 52.2°F11.2°C 20.1°F-6.6°C 28% Calm Calm 1.1 mph1.8 kmh 29.68 in1005.1 mb 0.00 in0.0 mm 0.00 in0.0 mm 0.00 in0.0 mm
04:16 PM 52.2°F11.2°C 19.2°F-7.1°C 27% Calm Calm 1.1 mph1.8 kmh 29.68 in1005.1 mb 0.00 in0.0 mm 0.00 in0.0 mm 0.00 in0.0 mm
04:17 PM 52.3°F11.3°C 19.3°F-7.1°C 27% Calm Calm 1.1 mph1.8 kmh 29.68 in1005.1 mb 0.00 in0.0 mm 0.00 in0.0 mm 0.00 in0.0 mm
04:18 PM 52.2°F11.2°C 19.2°F-7.1°C 27% Calm Calm 1.1 mph1.8 kmh 29.68 in1005.1 mb 0.00 in0.0 mm 0.00 in0.0 mm 0.00 in0.0 mm
04:19 PM 52.0°F11.1°C 19.1°F-7.2°C 27% Calm Calm 1.1 mph1.8 kmh 29.68 in1005.1 mb 0.00 in0.0 mm 0.00 in0.0 mm 0.00 in0.0 mm
04:20 PM 52.0°F11.1°C 19.1°F-7.2°C 27% Calm Calm 1.1 mph1.8 kmh 29.68 in1005.1 mb 0.00 in0.0 mm 0.00 in0.0 mm 0.00 in0.0 mm
04:21 PM 52.2°F11.2°C 19.2°F-7.1°C 27% Calm Calm 1.1 mph1.8 kmh 29.68 in1005.1 mb 0.00 in0.0 mm 0.00 in0.0 mm 0.00 in0.0 mm
04:22 PM 52.3°F11.3°C 19.3°F-7.1°C 27% Calm Calm 1.7 mph2.7 kmh 29.68 in1005.1 mb 0.00 in0.0 mm 0.00 in0.0 mm 0.00 in0.0 mm
04:23 PM 52.5°F11.4°C 20.4°F-6.4°C 28% Calm Calm 1.7 mph2.7 kmh 29.68 in1005.1 mb 0.00 in0.0 mm 0.00 in0.0 mm 0.00 in0.0 mm
04:24 PM 52.2°F11.2°C 20.1°F-6.6°C 28% Calm Calm 1.7 mph2.7 kmh 29.68 in1005.1 mb 0.00 in0.0 mm 0.00 in0.0 mm 0.00 in0.0 mm
04:25 PM 52.2°F11.2°C 20.1°F-6.6°C 28% 1.7 mph SSW2.7 kmh SSW 1.7 mph2.7 kmh 29.68 in1005.1 mb 0.00 in0.0 mm 0.00 in0.0 mm 0.00 in0.0 mm
04:26 PM 52.2°F11.2°C 20.1°F-6.6°C 28% Calm Calm 1.7 mph2.7 kmh 29.68 in1005.1 mb 0.00 in0.0 mm 0.00 in0.0 mm 0.00 in0.0 mm
04:27 PM 52.2°F11.2°C 20.1°F-6.6°C 28% Calm Calm 1.7 mph2.7 kmh 29.68 in1005.1 mb 0.00 in0.0 mm 0.00 in0.0 mm 0.00 in0.0 mm
04:28 PM 51.8°F11.0°C 19.7°F-6.8°C 28% Calm Calm 1.7 mph2.7 kmh 29.68 in1005.1 mb 0.00 in0.0 mm 0.00 in0.0 mm 0.00 in0.0 mm
04:29 PM 51.3°F10.7°C 19.3°F-7.1°C 28% Calm Calm 1.7 mph2.7 kmh 29.68 in1005.1 mb 0.00 in0.0 mm 0.00 in0.0 mm 0.00 in0.0 mm
04:30 PM 51.1°F10.6°C 19.1°F-7.2°C 28% Calm Calm 1.7 mph2.7 kmh 29.68 in1005.1 mb 0.00 in0.0 mm 0.00 in0.0 mm 0.00 in0.0 mm
04:31 PM 51.1°F10.6°C 20.0°F-6.7°C 29% Calm Calm 1.7 mph2.7 kmh 29.68 in1005.1 mb 0.00 in0.0 mm 0.00 in0.0 mm 0.00 in0.0 mm
04:32 PM 51.4°F10.8°C 20.2°F-6.6°C 29% Calm Calm 1.7 mph2.7 kmh 29.68 in1005.1 mb 0.00 in0.0 mm 0.00 in0.0 mm 0.00 in0.0 mm
04:33 PM 51.4°F10.8°C 20.2°F-6.6°C 29% Calm Calm 1.7 mph2.7 kmh 29.68 in1005.1 mb 0.00 in0.0 mm 0.00 in0.0 mm 0.00 in0.0 mm
04:34 PM 51.4°F10.8°C 20.2°F-6.6°C 29% Calm Calm 1.7 mph2.7 kmh 29.68 in1005.1 mb 0.00 in0.0 mm 0.00 in0.0 mm 0.00 in0.0 mm
04:35 PM 51.1°F10.6°C 20.0°F-6.7°C 29% Calm Calm 1.1 mph1.8 kmh 29.68 in1005.1 mb 0.00 in0.0 mm 0.00 in0.0 mm 0.00 in0.0 mm
04:36 PM 50.9°F10.5°C 19.8°F-6.8°C 29% Calm Calm 1.1 mph1.8 kmh 29.68 in1005.1 mb 0.00 in0.0 mm 0.00 in0.0 mm 0.00 in0.0 mm
04:37 PM 50.9°F10.5°C 19.8°F-6.8°C 29% Calm Calm 1.1 mph1.8 kmh 29.68 in1005.1 mb 0.00 in0.0 mm 0.00 in0.0 mm 0.00 in0.0 mm
04:38 PM 50.9°F10.5°C 19.8°F-6.8°C 29% Calm Calm 1.1 mph1.8 kmh 29.68 in1005.1 mb 0.00 in0.0 mm 0.00 in0.0 mm 0.00 in0.0 mm
04:39 PM 50.9°F10.5°C 19.8°F-6.8°C 29% Calm Calm 1.1 mph1.8 kmh 29.68 in1005.1 mb 0.00 in0.0 mm 0.00 in0.0 mm 0.00 in0.0 mm
04:40 PM 50.5°F10.3°C 19.4°F-7.0°C 29% Calm Calm 1.1 mph1.8 kmh 29.68 in1005.1 mb 0.00 in0.0 mm 0.00 in0.0 mm 0.00 in0.0 mm
04:41 PM 50.5°F10.3°C 19.4°F-7.0°C 29% Calm Calm 1.1 mph1.8 kmh 29.68 in1005.1 mb 0.00 in0.0 mm 0.00 in0.0 mm 0.00 in0.0 mm
04:42 PM 50.5°F10.3°C 19.4°F-7.0°C 29% Calm Calm 1.1 mph1.8 kmh 29.68 in1005.1 mb 0.00 in0.0 mm 0.00 in0.0 mm 0.00 in0.0 mm
04:43 PM 50.7°F10.4°C 20.4°F-6.4°C 30% Calm Calm -- 29.68 in1005.1 mb 0.00 in0.0 mm 0.00 in0.0 mm 0.00 in0.0 mm
04:44 PM 50.7°F10.4°C 20.4°F-6.4°C 30% Calm Calm -- 29.68 in1005.1 mb 0.00 in0.0 mm 0.00 in0.0 mm 0.00 in0.0 mm
04:45 PM 50.5°F10.3°C 20.2°F-6.6°C 30% Calm Calm -- 29.68 in1005.1 mb 0.00 in0.0 mm 0.00 in0.0 mm 0.00 in0.0 mm
04:46 PM 50.5°F10.3°C 20.2°F-6.6°C 30% Calm Calm -- 29.68 in1005.1 mb 0.00 in0.0 mm 0.00 in0.0 mm 0.00 in0.0 mm
04:47 PM 50.5°F10.3°C 20.2°F-6.6°C 30% Calm Calm -- 29.68 in1005.1 mb 0.00 in0.0 mm 0.00 in0.0 mm 0.00 in0.0 mm
04:48 PM 50.5°F10.3°C 20.2°F-6.6°C 30% Calm Calm -- 29.68 in1005.1 mb 0.00 in0.0 mm 0.00 in0.0 mm 0.00 in0.0 mm
04:49 PM 50.4°F10.2°C 20.2°F-6.6°C 30% Calm Calm -- 29.68 in1005.1 mb 0.00 in0.0 mm 0.00 in0.0 mm 0.00 in0.0 mm
04:50 PM 50.4°F10.2°C 20.2°F-6.6°C 30% Calm Calm -- 29.68 in1005.1 mb 0.00 in0.0 mm 0.00 in0.0 mm 0.00 in0.0 mm
04:51 PM 50.2°F10.1°C 20.0°F-6.7°C 30% Calm Calm -- 29.68 in1005.1 mb 0.00 in0.0 mm 0.00 in0.0 mm 0.00 in0.0 mm
04:52 PM 50.0°F10.0°C 19.0°F-7.2°C 29% Calm Calm -- 29.68 in1005.1 mb 0.00 in0.0 mm 0.00 in0.0 mm 0.00 in0.0 mm
04:53 PM 50.0°F10.0°C 19.0°F-7.2°C 29% Calm Calm -- 29.68 in1005.1 mb 0.00 in0.0 mm 0.00 in0.0 mm 0.00 in0.0 mm
04:54 PM 50.0°F10.0°C 19.8°F-6.8°C 30% Calm Calm -- 29.68 in1005.1 mb 0.00 in0.0 mm 0.00 in0.0 mm 0.00 in0.0 mm
04:55 PM 50.0°F10.0°C 19.8°F-6.8°C 30% Calm Calm 1.1 mph1.8 kmh 29.68 in1005.1 mb 0.00 in0.0 mm 0.00 in0.0 mm 0.00 in0.0 mm
04:56 PM 50.0°F10.0°C 20.6°F-6.3°C 31% Calm Calm 1.1 mph1.8 kmh 29.68 in1005.1 mb 0.00 in0.0 mm 0.00 in0.0 mm 0.00 in0.0 mm
04:57 PM 50.0°F10.0°C 20.6°F-6.3°C 31% Calm Calm 1.1 mph1.8 kmh 29.68 in1005.1 mb 0.00 in0.0 mm 0.00 in0.0 mm 0.00 in0.0 mm
04:58 PM 50.0°F10.0°C 20.6°F-6.3°C 31% Calm Calm 1.1 mph1.8 kmh 29.67 in1004.7 mb 0.00 in0.0 mm 0.00 in0.0 mm 0.00 in0.0 mm
04:59 PM 50.0°F10.0°C 20.6°F-6.3°C 31% Calm Calm 1.1 mph1.8 kmh 29.67 in1004.7 mb 0.00 in0.0 mm 0.00 in0.0 mm 0.00 in0.0 mm
05:00 PM 49.8°F9.9°C 20.4°F-6.4°C 31% Calm Calm 1.1 mph1.8 kmh 29.67 in1004.7 mb 0.00 in0.0 mm 0.00 in0.0 mm 0.00 in0.0 mm
05:01 PM 49.6°F9.8°C 19.5°F-6.9°C 30% 1.1 mph W1.8 kmh W 1.1 mph1.8 kmh 29.67 in1004.7 mb 0.00 in0.0 mm 0.00 in0.0 mm 0.00 in0.0 mm
05:02 PM 49.3°F9.6°C 19.2°F-7.1°C 30% Calm Calm 1.1 mph1.8 kmh 29.67 in1004.7 mb 0.00 in0.0 mm 0.00 in0.0 mm 0.00 in0.0 mm
05:03 PM 49.3°F9.6°C 19.2°F-7.1°C 30% Calm Calm 1.1 mph1.8 kmh 29.67 in1004.7 mb 0.00 in0.0 mm 0.00 in0.0 mm 0.00 in0.0 mm
05:04 PM 49.3°F9.6°C 19.2°F-7.1°C 30% Calm Calm 1.1 mph1.8 kmh 29.67 in1004.7 mb 0.00 in0.0 mm 0.00 in0.0 mm 0.00 in0.0 mm
05:05 PM 49.3°F9.6°C 19.2°F-7.1°C 30% Calm Calm 1.1 mph1.8 kmh 29.67 in1004.7 mb 0.00 in0.0 mm 0.00 in0.0 mm 0.00 in0.0 mm
05:06 PM 49.3°F9.6°C 20.0°F-6.7°C 31% Calm Calm 1.1 mph1.8 kmh 29.67 in1004.7 mb 0.00 in0.0 mm 0.00 in0.0 mm 0.00 in0.0 mm
05:07 PM 49.3°F9.6°C 20.0°F-6.7°C 31% Calm Calm 1.1 mph1.8 kmh 29.67 in1004.7 mb 0.00 in0.0 mm 0.00 in0.0 mm 0.00 in0.0 mm
05:08 PM 49.3°F9.6°C 20.0°F-6.7°C 31% Calm Calm 1.1 mph1.8 kmh 29.67 in1004.7 mb 0.00 in0.0 mm 0.00 in0.0 mm 0.00 in0.0 mm
05:09 PM 49.3°F9.6°C 20.7°F-6.3°C 32% Calm Calm 1.1 mph1.8 kmh 29.67 in1004.7 mb 0.00 in0.0 mm 0.00 in0.0 mm 0.00 in0.0 mm
05:10 PM 49.3°F9.6°C 20.0°F-6.7°C 31% Calm Calm 1.1 mph1.8 kmh 29.67 in1004.7 mb 0.00 in0.0 mm 0.00 in0.0 mm 0.00 in0.0 mm
05:11 PM 49.1°F9.5°C 19.8°F-6.8°C 31% Calm Calm -- 29.67 in1004.7 mb 0.00 in0.0 mm 0.00 in0.0 mm 0.00 in0.0 mm
05:12 PM 49.1°F9.5°C 19.8°F-6.8°C 31% Calm Calm -- 29.67 in1004.7 mb 0.00 in0.0 mm 0.00 in0.0 mm 0.00 in0.0 mm
05:13 PM 48.7°F9.3°C 18.7°F-7.4°C 30% Calm Calm -- 29.67 in1004.7 mb 0.00 in0.0 mm 0.00 in0.0 mm 0.00 in0.0 mm
05:14 PM 48.7°F9.3°C 18.7°F-7.4°C 30% Calm Calm -- 29.67 in1004.7 mb 0.00 in0.0 mm 0.00 in0.0 mm 0.00 in0.0 mm
05:15 PM 48.7°F9.3°C 19.4°F-7.0°C 31% Calm Calm -- 29.67 in1004.7 mb 0.00 in0.0 mm 0.00 in0.0 mm 0.00 in0.0 mm
05:16 PM 48.7°F9.3°C 20.2°F-6.6°C 32% Calm Calm -- 29.67 in1004.7 mb 0.00 in0.0 mm 0.00 in0.0 mm 0.00 in0.0 mm
05:17 PM 48.7°F9.3°C 20.2°F-6.6°C 32% Calm Calm -- 29.67 in1004.7 mb 0.00 in0.0 mm 0.00 in0.0 mm 0.00 in0.0 mm
05:18 PM 48.7°F9.3°C 20.2°F-6.6°C 32% Calm Calm -- 29.67 in1004.7 mb 0.00 in0.0 mm 0.00 in0.0 mm 0.00 in0.0 mm
05:19 PM 48.7°F9.3°C 20.9°F-6.2°C 33% Calm Calm -- 29.67 in1004.7 mb 0.00 in0.0 mm 0.00 in0.0 mm 0.00 in0.0 mm
05:20 PM 48.7°F9.3°C 21.6°F-5.8°C 34% Calm Calm -- 29.67 in1004.7 mb 0.00 in0.0 mm 0.00 in0.0 mm 0.00 in0.0 mm
05:21 PM 48.6°F9.2°C 21.5°F-5.8°C 34% Calm Calm -- 29.67 in1004.7 mb 0.00 in0.0 mm 0.00 in0.0 mm 0.00 in0.0 mm
05:22 PM 48.6°F9.2°C 22.2°F-5.4°C 35% Calm Calm -- 29.67 in1004.7 mb 0.00 in0.0 mm 0.00 in0.0 mm 0.00 in0.0 mm
05:23 PM 48.4°F9.1°C 22.0°F-5.6°C 35% Calm Calm -- 29.67 in1004.7 mb 0.00 in0.0 mm 0.00 in0.0 mm 0.00 in0.0 mm
05:24 PM 48.4°F9.1°C 22.0°F-5.6°C 35% Calm Calm -- 29.67 in1004.7 mb 0.00 in0.0 mm 0.00 in0.0 mm 0.00 in0.0 mm
05:25 PM 48.2°F9.0°C 21.8°F-5.7°C 35% Calm Calm -- 29.67 in1004.7 mb 0.00 in0.0 mm 0.00 in0.0 mm 0.00 in0.0 mm
05:26 PM 48.2°F9.0°C 21.8°F-5.7°C 35% Calm Calm -- 29.67 in1004.7 mb 0.00 in0.0 mm 0.00 in0.0 mm 0.00 in0.0 mm
05:27 PM 48.2°F9.0°C 22.5°F-5.3°C 36% Calm Calm -- 29.67 in1004.7 mb 0.00 in0.0 mm 0.00 in0.0 mm 0.00 in0.0 mm
05:28 PM 48.0°F8.9°C 22.3°F-5.4°C 36% Calm Calm -- 29.67 in1004.7 mb 0.00 in0.0 mm 0.00 in0.0 mm 0.00 in0.0 mm
05:29 PM 48.0°F8.9°C 22.3°F-5.4°C 36% Calm Calm -- 29.67 in1004.7 mb 0.00 in0.0 mm 0.00 in0.0 mm 0.00 in0.0 mm
05:30 PM 48.0°F8.9°C 22.3°F-5.4°C 36% Calm Calm -- 29.67 in1004.7 mb 0.00 in0.0 mm 0.00 in0.0 mm 0.00 in0.0 mm
05:31 PM 47.8°F8.8°C 22.2°F-5.4°C 36% Calm Calm -- 29.67 in1004.7 mb 0.00 in0.0 mm 0.00 in0.0 mm 0.00 in0.0 mm
05:32 PM 47.8°F8.8°C 22.2°F-5.4°C 36% Calm Calm -- 29.67 in1004.7 mb 0.00 in0.0 mm 0.00 in0.0 mm 0.00 in0.0 mm
05:33 PM 47.7°F8.7°C 22.1°F-5.5°C 36% Calm Calm -- 29.67 in1004.7 mb 0.00 in0.0 mm 0.00 in0.0 mm 0.00 in0.0 mm
05:34 PM 47.7°F8.7°C 22.1°F-5.5°C 36% Calm Calm -- 29.68 in1005.1 mb 0.00 in0.0 mm 0.00 in0.0 mm 0.00 in0.0 mm
05:35 PM 47.7°F8.7°C 22.7°F-5.2°C 37% Calm Calm -- 29.68 in1005.1 mb 0.00 in0.0 mm 0.00 in0.0 mm 0.00 in0.0 mm
05:36 PM 47.5°F8.6°C 23.2°F-4.9°C 38% Calm Calm -- 29.68 in1005.1 mb 0.00 in0.0 mm 0.00 in0.0 mm 0.00 in0.0 mm
05:37 PM 47.3°F8.5°C 23.0°F-5.0°C 38% Calm Calm -- 29.68 in1005.1 mb 0.00 in0.0 mm 0.00 in0.0 mm 0.00 in0.0 mm
05:38 PM 47.3°F8.5°C 23.0°F-5.0°C 38% Calm Calm -- 29.68 in1005.1 mb 0.00 in0.0 mm 0.00 in0.0 mm 0.00 in0.0 mm
05:39 PM 47.1°F8.4°C 22.8°F-5.1°C 38% Calm Calm -- 29.68 in1005.1 mb 0.00 in0.0 mm 0.00 in0.0 mm 0.00 in0.0 mm
05:40 PM 47.1°F8.4°C 22.8°F-5.1°C 38% Calm Calm -- 29.68 in1005.1 mb 0.00 in0.0 mm 0.00 in0.0 mm 0.00 in0.0 mm
05:41 PM 47.1°F8.4°C 22.8°F-5.1°C 38% Calm Calm -- 29.68 in1005.1 mb 0.00 in0.0 mm 0.00 in0.0 mm 0.00 in0.0 mm
05:42 PM 46.9°F8.3°C 22.6°F-5.2°C 38% Calm Calm -- 29.68 in1005.1 mb 0.00 in0.0 mm 0.00 in0.0 mm 0.00 in0.0 mm
05:43 PM 46.9°F8.3°C 22.6°F-5.2°C 38% Calm Calm -- 29.68 in1005.1 mb 0.00 in0.0 mm 0.00 in0.0 mm 0.00 in0.0 mm
05:44 PM 46.8°F8.2°C 23.2°F-4.9°C 39% Calm Calm -- 29.68 in1005.1 mb 0.00 in0.0 mm 0.00 in0.0 mm 0.00 in0.0 mm
05:45 PM 46.8°F8.2°C 23.2°F-4.9°C 39% Calm Calm -- 29.68 in1005.1 mb 0.00 in0.0 mm 0.00 in0.0 mm 0.00 in0.0 mm
05:46 PM 46.6°F8.1°C 23.0°F-5.0°C 39% Calm Calm -- 29.68 in1005.1 mb 0.00 in0.0 mm 0.00 in0.0 mm 0.00 in0.0 mm
05:47 PM 46.6°F8.1°C 22.4°F-5.3°C 38% Calm Calm -- 29.68 in1005.1 mb 0.00 in0.0 mm 0.00 in0.0 mm 0.00 in0.0 mm
05:48 PM 46.4°F8.0°C 22.2°F-5.4°C 38% Calm Calm -- 29.68 in1005.1 mb 0.00 in0.0 mm 0.00 in0.0 mm 0.00 in0.0 mm
05:49 PM 46.4°F8.0°C 22.2°F-5.4°C 38% Calm Calm -- 29.68 in1005.1 mb 0.00 in0.0 mm 0.00 in0.0 mm 0.00 in0.0 mm
05:50 PM 46.4°F8.0°C 22.2°F-5.4°C 38% Calm Calm -- 29.68 in1005.1 mb 0.00 in0.0 mm 0.00 in0.0 mm 0.00 in0.0 mm
05:51 PM 46.2°F7.9°C 22.6°F-5.2°C 39% Calm Calm -- 29.68 in1005.1 mb 0.00 in0.0 mm 0.00 in0.0 mm 0.00 in0.0 mm
05:52 PM 46.2°F7.9°C 22.6°F-5.2°C 39% Calm Calm -- 29.68 in1005.1 mb 0.00 in0.0 mm 0.00 in0.0 mm 0.00 in0.0 mm
05:53 PM 46.0°F7.8°C 22.4°F-5.3°C 39% Calm Calm -- 29.68 in1005.1 mb 0.00 in0.0 mm 0.00 in0.0 mm 0.00 in0.0 mm
05:54 PM 46.0°F7.8°C 22.4°F-5.3°C 39% Calm Calm -- 29.68 in1005.1 mb 0.00 in0.0 mm 0.00 in0.0 mm 0.00 in0.0 mm
05:55 PM 46.0°F7.8°C 22.4°F-5.3°C 39% Calm Calm -- 29.68 in1005.1 mb 0.00 in0.0 mm 0.00 in0.0 mm 0.00 in0.0 mm
05:56 PM 45.9°F7.7°C 22.4°F-5.3°C 39% Calm Calm -- 29.68 in1005.1 mb 0.00 in0.0 mm 0.00 in0.0 mm 0.00 in0.0 mm
05:57 PM 45.9°F7.7°C 23.0°F-5.0°C 40% Calm Calm -- 29.68 in1005.1 mb 0.00 in0.0 mm 0.00 in0.0 mm 0.00 in0.0 mm
05:58 PM 45.9°F7.7°C 23.0°F-5.0°C 40% Calm Calm -- 29.68 in1005.1 mb 0.00 in0.0 mm 0.00 in0.0 mm 0.00 in0.0 mm
05:59 PM 45.7°F7.6°C 22.8°F-5.1°C 40% Calm Calm -- 29.68 in1005.1 mb 0.00 in0.0 mm 0.00 in0.0 mm 0.00 in0.0 mm
06:00 PM 45.7°F7.6°C 22.8°F-5.1°C 40% Calm Calm -- 29.68 in1005.1 mb 0.00 in0.0 mm 0.00 in0.0 mm 0.00 in0.0 mm
06:01 PM 45.5°F7.5°C 22.6°F-5.2°C 40% Calm Calm -- 29.68 in1005.1 mb 0.00 in0.0 mm 0.00 in0.0 mm 0.00 in0.0 mm
06:02 PM 45.5°F7.5°C 22.6°F-5.2°C 40% Calm Calm -- 29.68 in1005.1 mb 0.00 in0.0 mm 0.00 in0.0 mm 0.00 in0.0 mm
06:03 PM 45.5°F7.5°C 22.0°F-5.6°C 39% Calm Calm -- 29.68 in1005.1 mb 0.00 in0.0 mm 0.00 in0.0 mm 0.00 in0.0 mm
06:04 PM 45.5°F7.5°C 22.0°F-5.6°C 39% Calm Calm -- 29.68 in1005.1 mb 0.00 in0.0 mm 0.00 in0.0 mm 0.00 in0.0 mm
06:05 PM 45.3°F7.4°C 22.4°F-5.3°C 40% Calm Calm -- 29.68 in1005.1 mb 0.00 in0.0 mm 0.00 in0.0 mm 0.00 in0.0 mm
06:06 PM 45.3°F7.4°C 22.4°F-5.3°C 40% Calm Calm -- 29.68 in1005.1 mb 0.00 in0.0 mm 0.00 in0.0 mm 0.00 in0.0 mm
06:07 PM 45.1°F7.3°C 22.8°F-5.1°C 41% Calm Calm -- 29.68 in1005.1 mb 0.00 in0.0 mm 0.00 in0.0 mm 0.00 in0.0 mm
06:08 PM 45.1°F7.3°C 22.8°F-5.1°C 41% Calm Calm -- 29.68 in1005.1 mb 0.00 in0.0 mm 0.00 in0.0 mm 0.00 in0.0 mm
06:09 PM 45.1°F7.3°C 22.8°F-5.1°C 41% Calm Calm -- 29.68 in1005.1 mb 0.00 in0.0 mm 0.00 in0.0 mm 0.00 in0.0 mm
06:10 PM 45.0°F7.2°C 22.7°F-5.2°C 41% Calm Calm -- 29.68 in1005.1 mb 0.00 in0.0 mm 0.00 in0.0 mm 0.00 in0.0 mm
06:11 PM 45.0°F7.2°C 22.7°F-5.2°C 41% Calm Calm -- 29.68 in1005.1 mb 0.00 in0.0 mm 0.00 in0.0 mm 0.00 in0.0 mm
06:12 PM 45.0°F7.2°C 22.7°F-5.2°C 41% Calm Calm -- 29.68 in1005.1 mb 0.00 in0.0 mm 0.00 in0.0 mm 0.00 in0.0 mm
06:13 PM 44.8°F7.1°C 22.6°F-5.2°C 41% Calm Calm -- 29.68 in1005.1 mb 0.00 in0.0 mm 0.00 in0.0 mm 0.00 in0.0 mm
06:14 PM 44.8°F7.1°C 22.6°F-5.2°C 41% Calm Calm -- 29.68 in1005.1 mb 0.00 in0.0 mm 0.00 in0.0 mm 0.00 in0.0 mm
06:15 PM 44.6°F7.0°C 22.9°F-5.1°C 42% Calm Calm -- 29.68 in1005.1 mb 0.00 in0.0 mm 0.00 in0.0 mm 0.00 in0.0 mm
06:16 PM 44.6°F7.0°C 22.9°F-5.1°C 42% Calm Calm -- 29.68 in1005.1 mb 0.00 in0.0 mm 0.00 in0.0 mm 0.00 in0.0 mm
06:17 PM 44.6°F7.0°C 22.9°F-5.1°C 42% Calm Calm -- 29.68 in1005.1 mb 0.00 in0.0 mm 0.00 in0.0 mm 0.00 in0.0 mm
06:18 PM 44.4°F6.9°C 22.8°F-5.1°C 42% Calm Calm -- 29.68 in1005.1 mb 0.00 in0.0 mm 0.00 in0.0 mm 0.00 in0.0 mm
06:19 PM 44.4°F6.9°C 22.8°F-5.1°C 42% Calm Calm -- 29.68 in1005.1 mb 0.00 in0.0 mm 0.00 in0.0 mm 0.00 in0.0 mm
06:20 PM 44.4°F6.9°C 22.8°F-5.1°C 42% Calm Calm -- 29.68 in1005.1 mb 0.00 in0.0 mm 0.00 in0.0 mm 0.00 in0.0 mm
06:21 PM 44.2°F6.8°C 22.6°F-5.2°C 42% Calm Calm -- 29.68 in1005.1 mb 0.00 in0.0 mm 0.00 in0.0 mm 0.00 in0.0 mm
06:22 PM 44.2°F6.8°C 22.6°F-5.2°C 42% Calm Calm -- 29.68 in1005.1 mb 0.00 in0.0 mm 0.00 in0.0 mm 0.00 in0.0 mm
06:23 PM 44.2°F6.8°C 22.6°F-5.2°C 42% Calm Calm -- 29.68 in1005.1 mb 0.00 in0.0 mm 0.00 in0.0 mm 0.00 in0.0 mm
06:24 PM 44.1°F6.7°C 22.5°F-5.3°C 42% Calm Calm -- 29.68 in1005.1 mb 0.00 in0.0 mm 0.00 in0.0 mm 0.00 in0.0 mm
06:25 PM 44.1°F6.7°C 23.1°F-4.9°C 43% Calm Calm -- 29.68 in1005.1 mb 0.00 in0.0 mm 0.00 in0.0 mm 0.00 in0.0 mm
06:26 PM 44.1°F6.7°C 23.1°F-4.9°C 43% Calm Calm -- 29.68 in1005.1 mb 0.00 in0.0 mm 0.00 in0.0 mm 0.00 in0.0 mm
06:27 PM 43.9°F6.6°C 22.9°F-5.1°C 43% Calm Calm -- 29.68 in1005.1 mb 0.00 in0.0 mm 0.00 in0.0 mm 0.00 in0.0 mm
06:28 PM 43.9°F6.6°C 22.9°F-5.1°C 43% Calm Calm -- 29.68 in1005.1 mb 0.00 in0.0 mm 0.00 in0.0 mm 0.00 in0.0 mm
06:29 PM 43.9°F6.6°C 22.9°F-5.1°C 43% Calm Calm -- 29.68 in1005.1 mb 0.00 in0.0 mm 0.00 in0.0 mm 0.00 in0.0 mm
06:30 PM 43.9°F6.6°C 22.9°F-5.1°C 43% Calm Calm -- 29.68 in1005.1 mb 0.00 in0.0 mm 0.00 in0.0 mm 0.00 in0.0 mm
06:31 PM 43.9°F6.6°C 22.9°F-5.1°C 43% Calm Calm -- 29.68 in1005.1 mb 0.00 in0.0 mm 0.00 in0.0 mm 0.00 in0.0 mm
06:32 PM 43.7°F6.5°C 22.7°F-5.2°C 43% Calm Calm -- 29.68 in1005.1 mb 0.00 in0.0 mm 0.00 in0.0 mm 0.00 in0.0 mm
06:33 PM 43.7°F6.5°C 22.7°F-5.2°C 43% Calm Calm -- 29.68 in1005.1 mb 0.00 in0.0 mm 0.00 in0.0 mm 0.00 in0.0 mm
06:34 PM 43.7°F6.5°C 22.7°F-5.2°C 43% Calm Calm -- 29.68 in1005.1 mb 0.00 in0.0 mm 0.00 in0.0 mm 0.00 in0.0 mm
06:35 PM 43.5°F6.4°C 23.1°F-4.9°C 44% Calm Calm -- 29.68 in1005.1 mb 0.00 in0.0 mm 0.00 in0.0 mm 0.00 in0.0 mm
06:36 PM 43.5°F6.4°C 23.1°F-4.9°C 44% Calm Calm -- 29.68 in1005.1 mb 0.00 in0.0 mm 0.00 in0.0 mm 0.00 in0.0 mm
06:37 PM 43.3°F6.3°C 22.9°F-5.1°C 44% Calm Calm -- 29.68 in1005.1 mb 0.00 in0.0 mm 0.00 in0.0 mm 0.00 in0.0 mm
06:38 PM 43.3°F6.3°C 22.9°F-5.1°C 44% Calm Calm -- 29.68 in1005.1 mb 0.00 in0.0 mm 0.00 in0.0 mm 0.00 in0.0 mm
06:39 PM 43.3°F6.3°C 22.9°F-5.1°C 44% Calm Calm -- 29.68 in1005.1 mb 0.00 in0.0 mm 0.00 in0.0 mm 0.00 in0.0 mm
06:40 PM 43.2°F6.2°C 22.8°F-5.1°C 44% Calm Calm -- 29.68 in1005.1 mb 0.00 in0.0 mm 0.00 in0.0 mm 0.00 in0.0 mm
06:41 PM 43.0°F6.1°C 22.6°F-5.2°C 44% Calm Calm -- 29.68 in1005.1 mb 0.00 in0.0 mm 0.00 in0.0 mm 0.00 in0.0 mm
06:42 PM 43.0°F6.1°C 22.6°F-5.2°C 44% Calm Calm -- 29.68 in1005.1 mb 0.00 in0.0 mm 0.00 in0.0 mm 0.00 in0.0 mm
06:43 PM 43.0°F6.1°C 22.6°F-5.2°C 44% Calm Calm -- 29.68 in1005.1 mb 0.00 in0.0 mm 0.00 in0.0 mm 0.00 in0.0 mm
06:44 PM 42.8°F6.0°C 22.4°F-5.3°C 44% Calm Calm -- 29.68 in1005.1 mb 0.00 in0.0 mm 0.00 in0.0 mm 0.00 in0.0 mm
06:45 PM 42.8°F6.0°C 22.9°F-5.1°C 45% Calm Calm -- 29.68 in1005.1 mb 0.00 in0.0 mm 0.00 in0.0 mm 0.00 in0.0 mm
06:46 PM 42.6°F5.9°C 22.8°F-5.1°C 45% Calm Calm -- 29.68 in1005.1 mb 0.00 in0.0 mm 0.00 in0.0 mm 0.00 in0.0 mm
06:47 PM 42.6°F5.9°C 22.8°F-5.1°C 45% Calm Calm -- 29.68 in1005.1 mb 0.00 in0.0 mm 0.00 in0.0 mm 0.00 in0.0 mm
06:48 PM 42.6°F5.9°C 22.8°F-5.1°C 45% Calm Calm -- 29.68 in1005.1 mb 0.00 in0.0 mm 0.00 in0.0 mm 0.00 in0.0 mm
06:49 PM 42.4°F5.8°C 22.6°F-5.2°C 45% Calm Calm -- 29.68 in1005.1 mb 0.00 in0.0 mm 0.00 in0.0 mm 0.00 in0.0 mm
06:50 PM 42.4°F5.8°C 22.6°F-5.2°C 45% Calm Calm -- 29.68 in1005.1 mb 0.00 in0.0 mm 0.00 in0.0 mm 0.00 in0.0 mm
06:51 PM 42.3°F5.7°C 22.5°F-5.3°C 45% Calm Calm -- 29.68 in1005.1 mb 0.00 in0.0 mm 0.00 in0.0 mm 0.00 in0.0 mm
06:52 PM 42.1°F5.6°C 22.3°F-5.4°C 45% Calm Calm -- 29.68 in1005.1 mb 0.00 in0.0 mm 0.00 in0.0 mm 0.00 in0.0 mm
06:53 PM 42.1°F5.6°C 22.3°F-5.4°C 45% Calm Calm -- 29.68 in1005.1 mb 0.00 in0.0 mm 0.00 in0.0 mm 0.00 in0.0 mm
06:54 PM 42.1°F5.6°C 22.3°F-5.4°C 45% Calm Calm -- 29.68 in1005.1 mb 0.00 in0.0 mm 0.00 in0.0 mm 0.00 in0.0 mm
06:55 PM 42.1°F5.6°C 22.3°F-5.4°C 45% Calm Calm -- 29.68 in1005.1 mb 0.00 in0.0 mm 0.00 in0.0 mm 0.00 in0.0 mm
06:56 PM 41.9°F5.5°C 22.1°F-5.5°C 45% Calm Calm -- 29.68 in1005.1 mb 0.00 in0.0 mm 0.00 in0.0 mm 0.00 in0.0 mm
06:57 PM 41.9°F5.5°C 22.1°F-5.5°C 45% Calm Calm -- 29.68 in1005.1 mb 0.00 in0.0 mm 0.00 in0.0 mm 0.00 in0.0 mm
06:58 PM 41.7°F5.4°C 21.9°F-5.6°C 45% Calm Calm -- 29.68 in1005.1 mb 0.00 in0.0 mm 0.00 in0.0 mm 0.00 in0.0 mm
06:59 PM 41.7°F5.4°C 21.9°F-5.6°C 45% Calm Calm -- 29.68 in1005.1 mb 0.00 in0.0 mm 0.00 in0.0 mm 0.00 in0.0 mm
07:00 PM 41.7°F5.4°C 22.5°F-5.3°C 46% Calm Calm -- 29.68 in1005.1 mb 0.00 in0.0 mm 0.00 in0.0 mm 0.00 in0.0 mm
07:01 PM 41.5°F5.3°C 22.3°F-5.4°C 46% Calm Calm -- 29.68 in1005.1 mb 0.00 in0.0 mm 0.00 in0.0 mm 0.00 in0.0 mm
07:02 PM 41.5°F5.3°C 22.3°F-5.4°C 46% Calm Calm -- 29.68 in1005.1 mb 0.00 in0.0 mm 0.00 in0.0 mm 0.00 in0.0 mm
07:03 PM 41.5°F5.3°C 22.3°F-5.4°C 46% Calm Calm -- 29.68 in1005.1 mb 0.00 in0.0 mm 0.00 in0.0 mm 0.00 in0.0 mm
07:04 PM 41.5°F5.3°C 22.8°F-5.1°C 47% Calm Calm -- 29.68 in1005.1 mb 0.00 in0.0 mm 0.00 in0.0 mm 0.00 in0.0 mm
07:05 PM 41.4°F5.2°C 22.7°F-5.2°C 47% Calm Calm -- 29.68 in1005.1 mb 0.00 in0.0 mm 0.00 in0.0 mm 0.00 in0.0 mm
07:06 PM 41.4°F5.2°C 22.7°F-5.2°C 47% Calm Calm -- 29.68 in1005.1 mb 0.00 in0.0 mm 0.00 in0.0 mm 0.00 in0.0 mm
07:07 PM 41.4°F5.2°C 22.7°F-5.2°C 47% Calm Calm -- 29.68 in1005.1 mb 0.00 in0.0 mm 0.00 in0.0 mm 0.00 in0.0 mm
07:08 PM 41.2°F5.1°C 23.5°F-4.7°C 49% Calm Calm -- 29.68 in1005.1 mb 0.00 in0.0 mm 0.00 in0.0 mm 0.00 in0.0 mm
07:09 PM 41.2°F5.1°C 23.5°F-4.7°C 49% Calm Calm -- 29.68 in1005.1 mb 0.00 in0.0 mm 0.00 in0.0 mm 0.00 in0.0 mm
07:10 PM 41.0°F5.0°C 23.3°F-4.8°C 49% Calm Calm -- 29.68 in1005.1 mb 0.00 in0.0 mm 0.00 in0.0 mm 0.00 in0.0 mm
07:11 PM 41.0°F5.0°C 23.3°F-4.8°C 49% Calm Calm -- 29.68 in1005.1 mb 0.00 in0.0 mm 0.00 in0.0 mm 0.00 in0.0 mm
07:12 PM 40.8°F4.9°C 23.1°F-4.9°C 49% Calm Calm -- 29.68 in1005.1 mb 0.00 in0.0 mm 0.00 in0.0 mm 0.00 in0.0 mm
07:13 PM 40.8°F4.9°C 23.1°F-4.9°C 49% Calm Calm -- 29.68 in1005.1 mb 0.00 in0.0 mm 0.00 in0.0 mm 0.00 in0.0 mm
07:14 PM 40.8°F4.9°C 23.1°F-4.9°C 49% Calm Calm -- 29.68 in1005.1 mb 0.00 in0.0 mm 0.00 in0.0 mm 0.00 in0.0 mm
07:15 PM 40.6°F4.8°C 23.0°F-5.0°C 49% Calm Calm -- 29.68 in1005.1 mb 0.00 in0.0 mm 0.00 in0.0 mm 0.00 in0.0 mm
07:16 PM 40.5°F4.7°C 22.9°F-5.1°C 49% Calm Calm -- 29.68 in1005.1 mb 0.00 in0.0 mm 0.00 in0.0 mm 0.00 in0.0 mm
07:17 PM 40.5°F4.7°C 22.9°F-5.1°C 49% Calm Calm -- 29.68 in1005.1 mb 0.00 in0.0 mm 0.00 in0.0 mm 0.00 in0.0 mm
07:18 PM 40.5°F4.7°C 22.9°F-5.1°C 49% Calm Calm -- 29.68 in1005.1 mb 0.00 in0.0 mm 0.00 in0.0 mm 0.00 in0.0 mm
07:19 PM 40.5°F4.7°C 23.3°F-4.8°C 50% Calm Calm -- 29.68 in1005.1 mb 0.00 in0.0 mm 0.00 in0.0 mm 0.00 in0.0 mm
07:20 PM 40.3°F4.6°C 23.2°F-4.9°C 50% Calm Calm -- 29.68 in1005.1 mb 0.00 in0.0 mm 0.00 in0.0 mm 0.00 in0.0 mm
07:21 PM 40.3°F4.6°C 23.2°F-4.9°C 50% Calm Calm -- 29.68 in1005.1 mb 0.00 in0.0 mm 0.00 in0.0 mm 0.00 in0.0 mm
07:22 PM 40.1°F4.5°C 23.0°F-5.0°C 50% Calm Calm -- 29.68 in1005.1 mb 0.00 in0.0 mm 0.00 in0.0 mm 0.00 in0.0 mm
07:23 PM 40.1°F4.5°C 23.0°F-5.0°C 50% Calm Calm -- 29.68 in1005.1 mb 0.00 in0.0 mm 0.00 in0.0 mm 0.00 in0.0 mm
07:24 PM 39.9°F4.4°C 22.8°F-5.1°C 50% Calm Calm -- 29.68 in1005.1 mb 0.00 in0.0 mm 0.00 in0.0 mm 0.00 in0.0 mm
07:25 PM 39.9°F4.4°C 22.8°F-5.1°C 50% Calm Calm -- 29.68 in1005.1 mb 0.00 in0.0 mm 0.00 in0.0 mm 0.00 in0.0 mm
07:26 PM 39.7°F4.3°C 22.6°F-5.2°C 50% Calm Calm -- 29.68 in1005.1 mb 0.00 in0.0 mm 0.00 in0.0 mm 0.00 in0.0 mm
07:27 PM 39.7°F4.3°C 22.6°F-5.2°C 50% Calm Calm -- 29.68 in1005.1 mb 0.00 in0.0 mm 0.00 in0.0 mm 0.00 in0.0 mm
07:28 PM 39.7°F4.3°C 22.6°F-5.2°C 50% Calm Calm -- 29.68 in1005.1 mb 0.00 in0.0 mm 0.00 in0.0 mm 0.00 in0.0 mm
07:29 PM 39.6°F4.2°C 23.0°F-5.0°C 51% Calm Calm -- 29.68 in1005.1 mb 0.00 in0.0 mm 0.00 in0.0 mm 0.00 in0.0 mm
07:30 PM 39.6°F4.2°C 23.4°F-4.8°C 52% Calm Calm -- 29.68 in1005.1 mb 0.00 in0.0 mm 0.00 in0.0 mm 0.00 in0.0 mm
07:31 PM 39.6°F4.2°C 23.4°F-4.8°C 52% Calm Calm -- 29.68 in1005.1 mb 0.00 in0.0 mm 0.00 in0.0 mm 0.00 in0.0 mm
07:32 PM 39.6°F4.2°C 23.4°F-4.8°C 52% Calm Calm -- 29.68 in1005.1 mb 0.00 in0.0 mm 0.00 in0.0 mm 0.00 in0.0 mm
07:33 PM 39.6°F4.2°C 23.4°F-4.8°C 52% Calm Calm -- 29.68 in1005.1 mb 0.00 in0.0 mm 0.00 in0.0 mm 0.00 in0.0 mm
07:34 PM 39.4°F4.1°C 23.7°F-4.6°C 53% Calm Calm -- 29.68 in1005.1 mb 0.00 in0.0 mm 0.00 in0.0 mm 0.00 in0.0 mm
07:35 PM 39.4°F4.1°C 24.2°F-4.3°C 54% Calm Calm -- 29.68 in1005.1 mb 0.00 in0.0 mm 0.00 in0.0 mm 0.00 in0.0 mm
07:36 PM 39.4°F4.1°C 24.2°F-4.3°C 54% Calm Calm -- 29.68 in1005.1 mb 0.00 in0.0 mm 0.00 in0.0 mm 0.00 in0.0 mm
07:37 PM 39.4°F4.1°C 24.2°F-4.3°C 54% Calm Calm -- 29.68 in1005.1 mb 0.00 in0.0 mm 0.00 in0.0 mm 0.00 in0.0 mm
07:38 PM 39.2°F4.0°C 24.4°F-4.2°C 55% Calm Calm -- 29.68 in1005.1 mb 0.00 in0.0 mm 0.00 in0.0 mm 0.00 in0.0 mm
07:39 PM 39.2°F4.0°C 24.0°F-4.4°C 54% Calm Calm -- 29.68 in1005.1 mb 0.00 in0.0 mm 0.00 in0.0 mm 0.00 in0.0 mm
07:40 PM 39.2°F4.0°C 24.0°F-4.4°C 54% Calm Calm -- 29.68 in1005.1 mb 0.00 in0.0 mm 0.00 in0.0 mm 0.00 in0.0 mm
07:41 PM 39.2°F4.0°C 24.4°F-4.2°C 55% Calm Calm -- 29.68 in1005.1 mb 0.00 in0.0 mm 0.00 in0.0 mm 0.00 in0.0 mm
07:42 PM 39.0°F3.9°C 24.7°F-4.1°C 56% Calm Calm -- 29.68 in1005.1 mb 0.00 in0.0 mm 0.00 in0.0 mm 0.00 in0.0 mm
07:43 PM 39.0°F3.9°C 24.7°F-4.1°C 56% Calm Calm -- 29.68 in1005.1 mb 0.00 in0.0 mm 0.00 in0.0 mm 0.00 in0.0 mm
07:44 PM 39.0°F3.9°C 24.7°F-4.1°C 56% Calm Calm -- 29.68 in1005.1 mb 0.00 in0.0 mm 0.00 in0.0 mm 0.00 in0.0 mm
07:45 PM 39.0°F3.9°C 24.7°F-4.1°C 56% Calm Calm -- 29.68 in1005.1 mb 0.00 in0.0 mm 0.00 in0.0 mm 0.00 in0.0 mm
07:46 PM 38.8°F3.8°C 24.5°F-4.2°C 56% Calm Calm -- 29.68 in1005.1 mb 0.00 in0.0 mm 0.00 in0.0 mm 0.00 in0.0 mm
07:47 PM 38.8°F3.8°C 24.5°F-4.2°C 56% Calm Calm -- 29.68 in1005.1 mb 0.00 in0.0 mm 0.00 in0.0 mm 0.00 in0.0 mm
07:48 PM 38.7°F3.7°C 23.9°F-4.5°C 55% Calm Calm -- 29.68 in1005.1 mb 0.00 in0.0 mm 0.00 in0.0 mm 0.00 in0.0 mm
07:49 PM 38.7°F3.7°C 24.4°F-4.2°C 56% Calm Calm -- 29.68 in1005.1 mb 0.00 in0.0 mm 0.00 in0.0 mm 0.00 in0.0 mm
07:50 PM 38.7°F3.7°C 24.4°F-4.2°C 56% Calm Calm -- 29.68 in1005.1 mb 0.00 in0.0 mm 0.00 in0.0 mm 0.00 in0.0 mm
07:51 PM 38.7°F3.7°C 24.4°F-4.2°C 56% Calm Calm -- 29.68 in1005.1 mb 0.00 in0.0 mm 0.00 in0.0 mm 0.00 in0.0 mm
07:52 PM 38.7°F3.7°C 24.4°F-4.2°C 56% Calm Calm -- 29.68 in1005.1 mb 0.00 in0.0 mm 0.00 in0.0 mm 0.00 in0.0 mm
07:53 PM 38.5°F3.6°C 24.2°F-4.3°C 56% Calm Calm -- 29.68 in1005.1 mb 0.00 in0.0 mm 0.00 in0.0 mm 0.00 in0.0 mm
07:54 PM 38.5°F3.6°C 24.2°F-4.3°C 56% Calm Calm -- 29.68 in1005.1 mb 0.00 in0.0 mm 0.00 in0.0 mm 0.00 in0.0 mm
07:55 PM 38.3°F3.5°C 24.0°F-4.4°C 56% Calm Calm -- 29.68 in1005.1 mb 0.00 in0.0 mm 0.00 in0.0 mm 0.00 in0.0 mm
07:56 PM 38.3°F3.5°C 24.0°F-4.4°C 56% Calm Calm -- 29.68 in1005.1 mb 0.00 in0.0 mm 0.00 in0.0 mm 0.00 in0.0 mm
07:57 PM 38.3°F3.5°C 24.0°F-4.4°C 56% Calm Calm -- 29.68 in1005.1 mb 0.00 in0.0 mm 0.00 in0.0 mm 0.00 in0.0 mm
07:58 PM 38.3°F3.5°C 24.4°F-4.2°C 57% Calm Calm -- 29.68 in1005.1 mb 0.00 in0.0 mm 0.00 in0.0 mm 0.00 in0.0 mm
07:59 PM 38.1°F3.4°C 24.6°F-4.1°C 58% Calm Calm -- 29.68 in1005.1 mb 0.00 in0.0 mm 0.00 in0.0 mm 0.00 in0.0 mm
08:00 PM 38.1°F3.4°C 24.6°F-4.1°C 58% Calm Calm -- 29.68 in1005.1 mb 0.00 in0.0 mm 0.00 in0.0 mm 0.00 in0.0 mm
08:01 PM 38.1°F3.4°C 24.6°F-4.1°C 58% Calm Calm -- 29.68 in1005.1 mb 0.00 in0.0 mm 0.00 in0.0 mm 0.00 in0.0 mm
08:02 PM 38.1°F3.4°C 24.6°F-4.1°C 58% Calm Calm -- 29.68 in1005.1 mb 0.00 in0.0 mm 0.00 in0.0 mm 0.00 in0.0 mm
08:03 PM 37.9°F3.3°C 24.0°F-4.4°C 57% Calm Calm -- 29.68 in1005.1 mb 0.00 in0.0 mm 0.00 in0.0 mm 0.00 in0.0 mm
08:04 PM 37.9°F3.3°C 24.0°F-4.4°C 57% Calm Calm -- 29.68 in1005.1 mb 0.00 in0.0 mm 0.00 in0.0 mm 0.00 in0.0 mm
08:05 PM 37.9°F3.3°C 24.0°F-4.4°C 57% Calm Calm -- 29.68 in1005.1 mb 0.00 in0.0 mm 0.00 in0.0 mm 0.00 in0.0 mm
08:06 PM 37.8°F3.2°C 23.5°F-4.7°C 56% Calm Calm -- 29.68 in1005.1 mb 0.00 in0.0 mm 0.00 in0.0 mm 0.00 in0.0 mm
08:07 PM 37.8°F3.2°C 23.5°F-4.7°C 56% Calm Calm -- 29.68 in1005.1 mb 0.00 in0.0 mm 0.00 in0.0 mm 0.00 in0.0 mm
08:08 PM 37.8°F3.2°C 24.0°F-4.4°C 57% Calm Calm -- 29.68 in1005.1 mb 0.00 in0.0 mm 0.00 in0.0 mm 0.00 in0.0 mm
08:09 PM 37.8°F3.2°C 24.0°F-4.4°C 57% Calm Calm -- 29.68 in1005.1 mb 0.00 in0.0 mm 0.00 in0.0 mm 0.00 in0.0 mm
08:10 PM 37.8°F3.2°C 24.0°F-4.4°C 57% Calm Calm -- 29.68 in1005.1 mb 0.00 in0.0 mm 0.00 in0.0 mm 0.00 in0.0 mm
08:11 PM 37.6°F3.1°C 23.8°F-4.6°C 57% Calm Calm -- 29.68 in1005.1 mb 0.00 in0.0 mm 0.00 in0.0 mm 0.00 in0.0 mm
08:12 PM 37.6°F3.1°C 23.8°F-4.6°C 57% Calm Calm -- 29.68 in1005.1 mb 0.00 in0.0 mm 0.00 in0.0 mm 0.00 in0.0 mm
08:13 PM 37.4°F3.0°C 23.6°F-4.7°C 57% Calm Calm -- 29.68 in1005.1 mb 0.00 in0.0 mm 0.00 in0.0 mm 0.00 in0.0 mm
08:14 PM 37.4°F3.0°C 23.6°F-4.7°C 57% Calm Calm -- 29.68 in1005.1 mb 0.00 in0.0 mm 0.00 in0.0 mm 0.00 in0.0 mm
08:15 PM 37.4°F3.0°C 24.0°F-4.4°C 58% Calm Calm -- 29.68 in1005.1 mb 0.00 in0.0 mm 0.00 in0.0 mm 0.00 in0.0 mm
08:16 PM 37.2°F2.9°C 23.8°F-4.6°C 58% Calm Calm -- 29.68 in1005.1 mb 0.00 in0.0 mm 0.00 in0.0 mm 0.00 in0.0 mm
08:17 PM 37.2°F2.9°C 23.8°F-4.6°C 58% Calm Calm -- 29.68 in1005.1 mb 0.00 in0.0 mm 0.00 in0.0 mm 0.00 in0.0 mm
08:18 PM 37.2°F2.9°C 24.2°F-4.3°C 59% Calm Calm -- 29.68 in1005.1 mb 0.00 in0.0 mm 0.00 in0.0 mm 0.00 in0.0 mm
08:19 PM 37.2°F2.9°C 24.2°F-4.3°C 59% Calm Calm -- 29.68 in1005.1 mb 0.00 in0.0 mm 0.00 in0.0 mm 0.00 in0.0 mm
08:20 PM 37.2°F2.9°C 23.8°F-4.6°C 58% Calm Calm -- 29.68 in1005.1 mb 0.00 in0.0 mm 0.00 in0.0 mm 0.00 in0.0 mm
08:21 PM 37.2°F2.9°C 23.8°F-4.6°C 58% Calm Calm -- 29.68 in1005.1 mb 0.00 in0.0 mm 0.00 in0.0 mm 0.00 in0.0 mm
08:22 PM 37.0°F2.8°C 23.6°F-4.7°C 58% Calm Calm -- 29.69 in1005.4 mb 0.00 in0.0 mm 0.00 in0.0 mm 0.00 in0.0 mm
08:23 PM 37.0°F2.8°C 23.6°F-4.7°C 58% Calm Calm -- 29.69 in1005.4 mb 0.00 in0.0 mm 0.00 in0.0 mm 0.00 in0.0 mm
08:24 PM 37.0°F2.8°C 23.6°F-4.7°C 58% Calm Calm -- 29.69 in1005.4 mb 0.00 in0.0 mm 0.00 in0.0 mm 0.00 in0.0 mm
08:25 PM 37.0°F2.8°C 23.6°F-4.7°C 58% Calm Calm -- 29.69 in1005.4 mb 0.00 in0.0 mm 0.00 in0.0 mm 0.00 in0.0 mm
08:26 PM 37.0°F2.8°C 23.6°F-4.7°C 58% Calm Calm -- 29.69 in1005.4 mb 0.00 in0.0 mm 0.00 in0.0 mm 0.00 in0.0 mm
08:27 PM 37.0°F2.8°C 23.6°F-4.7°C 58% Calm Calm -- 29.69 in1005.4 mb 0.00 in0.0 mm 0.00 in0.0 mm 0.00 in0.0 mm
08:28 PM 36.9°F2.7°C 23.9°F-4.5°C 59% Calm Calm -- 29.69 in1005.4 mb 0.00 in0.0 mm 0.00 in0.0 mm 0.00 in0.0 mm
08:29 PM 36.9°F2.7°C 23.9°F-4.5°C 59% Calm Calm -- 29.69 in1005.4 mb 0.00 in0.0 mm 0.00 in0.0 mm 0.00 in0.0 mm
08:30 PM 36.9°F2.7°C 23.9°F-4.5°C 59% Calm Calm -- 29.69 in1005.4 mb 0.00 in0.0 mm 0.00 in0.0 mm 0.00 in0.0 mm
08:31 PM 36.9°F2.7°C 23.9°F-4.5°C 59% Calm Calm -- 29.69 in1005.4 mb 0.00 in0.0 mm 0.00 in0.0 mm 0.00 in0.0 mm
08:32 PM 36.9°F2.7°C 23.9°F-4.5°C 59% Calm Calm -- 29.69 in1005.4 mb 0.00 in0.0 mm 0.00 in0.0 mm 0.00 in0.0 mm
08:33 PM 36.9°F2.7°C 23.9°F-4.5°C 59% Calm Calm -- 29.69 in1005.4 mb 0.00 in0.0 mm 0.00 in0.0 mm 0.00 in0.0 mm
08:34 PM 36.9°F2.7°C 23.9°F-4.5°C 59% Calm Calm -- 29.69 in1005.4 mb 0.00 in0.0 mm 0.00 in0.0 mm 0.00 in0.0 mm
08:35 PM 36.7°F2.6°C 23.7°F-4.6°C 59% Calm Calm -- 29.69 in1005.4 mb 0.00 in0.0 mm 0.00 in0.0 mm 0.00 in0.0 mm
08:36 PM 36.7°F2.6°C 23.7°F-4.6°C 59% Calm Calm -- 29.69 in1005.4 mb 0.00 in0.0 mm 0.00 in0.0 mm 0.00 in0.0 mm
08:37 PM 36.7°F2.6°C 23.7°F-4.6°C 59% Calm Calm -- 29.69 in1005.4 mb 0.00 in0.0 mm 0.00 in0.0 mm 0.00 in0.0 mm
08:38 PM 36.7°F2.6°C 23.7°F-4.6°C 59% Calm Calm -- 29.69 in1005.4 mb 0.00 in0.0 mm 0.00 in0.0 mm 0.00 in0.0 mm
08:39 PM 36.5°F2.5°C 24.0°F-4.4°C 60% Calm Calm -- 29.69 in1005.4 mb 0.00 in0.0 mm 0.00 in0.0 mm 0.00 in0.0 mm
08:40 PM 36.5°F2.5°C 24.0°F-4.4°C 60% Calm Calm -- 29.69 in1005.4 mb 0.00 in0.0 mm 0.00 in0.0 mm 0.00 in0.0 mm
08:41 PM 36.5°F2.5°C 23.6°F-4.7°C 59% Calm Calm -- 29.69 in1005.4 mb 0.00 in0.0 mm 0.00 in0.0 mm 0.00 in0.0 mm
08:42 PM 36.5°F2.5°C 23.6°F-4.7°C 59% Calm Calm -- 29.69 in1005.4 mb 0.00 in0.0 mm 0.00 in0.0 mm 0.00 in0.0 mm
08:43 PM 36.5°F2.5°C 23.6°F-4.7°C 59% Calm Calm -- 29.69 in1005.4 mb 0.00 in0.0 mm 0.00 in0.0 mm 0.00 in0.0 mm
08:44 PM 36.5°F2.5°C 24.0°F-4.4°C 60% Calm Calm -- 29.69 in1005.4 mb 0.00 in0.0 mm 0.00 in0.0 mm 0.00 in0.0 mm
08:45 PM 36.5°F2.5°C 24.0°F-4.4°C 60% Calm Calm -- 29.69 in1005.4 mb 0.00 in0.0 mm 0.00 in0.0 mm 0.00 in0.0 mm
08:46 PM 36.3°F2.4°C 23.4°F-4.8°C 59% Calm Calm -- 29.69 in1005.4 mb 0.00 in0.0 mm 0.00 in0.0 mm 0.00 in0.0 mm
08:47 PM 36.3°F2.4°C 23.4°F-4.8°C 59% Calm Calm -- 29.69 in1005.4 mb 0.00 in0.0 mm 0.00 in0.0 mm 0.00 in0.0 mm
08:48 PM 36.3°F2.4°C 23.4°F-4.8°C 59% Calm Calm -- 29.69 in1005.4 mb 0.00 in0.0 mm 0.00 in0.0 mm 0.00 in0.0 mm
08:49 PM 36.3°F2.4°C 23.4°F-4.8°C 59% Calm Calm -- 29.69 in1005.4 mb 0.00 in0.0 mm 0.00 in0.0 mm 0.00 in0.0 mm
08:50 PM 36.3°F2.4°C 23.4°F-4.8°C 59% Calm Calm -- 29.69 in1005.4 mb 0.00 in0.0 mm 0.00 in0.0 mm 0.00 in0.0 mm
08:51 PM 36.3°F2.4°C 23.4°F-4.8°C 59% Calm Calm -- 29.69 in1005.4 mb 0.00 in0.0 mm 0.00 in0.0 mm 0.00 in0.0 mm
08:52 PM 36.1°F2.3°C 23.2°F-4.9°C 59% Calm Calm -- 29.69 in1005.4 mb 0.00 in0.0 mm 0.00 in0.0 mm 0.00 in0.0 mm
08:53 PM 36.1°F2.3°C 23.2°F-4.9°C 59% Calm Calm -- 29.69 in1005.4 mb 0.00 in0.0 mm 0.00 in0.0 mm 0.00 in0.0 mm
08:54 PM 36.1°F2.3°C 23.2°F-4.9°C 59% Calm Calm -- 29.69 in1005.4 mb 0.00 in0.0 mm 0.00 in0.0 mm 0.00 in0.0 mm
08:55 PM 36.1°F2.3°C 22.4°F-5.3°C 57% Calm Calm -- 29.69 in1005.4 mb 0.00 in0.0 mm 0.00 in0.0 mm 0.00 in0.0 mm
08:56 PM 36.1°F2.3°C 22.4°F-5.3°C 57% Calm Calm -- 29.69 in1005.4 mb 0.00 in0.0 mm 0.00 in0.0 mm 0.00 in0.0 mm
08:57 PM 36.0°F2.2°C 22.3°F-5.4°C 57% Calm Calm -- 29.69 in1005.4 mb 0.00 in0.0 mm 0.00 in0.0 mm 0.00 in0.0 mm
08:58 PM 36.0°F2.2°C 22.3°F-5.4°C 57% Calm Calm -- 29.69 in1005.4 mb 0.00 in0.0 mm 0.00 in0.0 mm 0.00 in0.0 mm
08:59 PM 36.0°F2.2°C 22.3°F-5.4°C 57% Calm Calm -- 29.69 in1005.4 mb 0.00 in0.0 mm 0.00 in0.0 mm 0.00 in0.0 mm
09:00 PM 36.0°F2.2°C 21.8°F-5.7°C 56% Calm Calm -- 29.69 in1005.4 mb 0.00 in0.0 mm 0.00 in0.0 mm 0.00 in0.0 mm
09:01 PM 36.0°F2.2°C 22.3°F-5.4°C 57% Calm Calm -- 29.69 in1005.4 mb 0.00 in0.0 mm 0.00 in0.0 mm 0.00 in0.0 mm
09:02 PM 36.0°F2.2°C 22.3°F-5.4°C 57% Calm Calm -- 29.69 in1005.4 mb 0.00 in0.0 mm 0.00 in0.0 mm 0.00 in0.0 mm
09:03 PM 36.0°F2.2°C 22.3°F-5.4°C 57% Calm Calm -- 29.69 in1005.4 mb 0.00 in0.0 mm 0.00 in0.0 mm 0.00 in0.0 mm
09:04 PM 36.0°F2.2°C 22.7°F-5.2°C 58% Calm Calm -- 29.69 in1005.4 mb 0.00 in0.0 mm 0.00 in0.0 mm 0.00 in0.0 mm
09:05 PM 35.8°F2.1°C 22.5°F-5.3°C 58% Calm Calm -- 29.69 in1005.4 mb 0.00 in0.0 mm 0.00 in0.0 mm 0.00 in0.0 mm
09:06 PM 35.8°F2.1°C 22.5°F-5.3°C 58% Calm Calm -- 29.69 in1005.4 mb 0.00 in0.0 mm 0.00 in0.0 mm 0.00 in0.0 mm
09:07 PM 35.8°F2.1°C 22.9°F-5.1°C 59% Calm Calm -- 29.69 in1005.4 mb 0.00 in0.0 mm 0.00 in0.0 mm 0.00 in0.0 mm
09:08 PM 35.8°F2.1°C 22.9°F-5.1°C 59% Calm Calm -- 29.69 in1005.4 mb 0.00 in0.0 mm 0.00 in0.0 mm 0.00 in0.0 mm
09:09 PM 35.8°F2.1°C 22.9°F-5.1°C 59% Calm Calm -- 29.69 in1005.4 mb 0.00 in0.0 mm 0.00 in0.0 mm 0.00 in0.0 mm
09:10 PM 35.8°F2.1°C 23.3°F-4.8°C 60% Calm Calm -- 29.69 in1005.4 mb 0.00 in0.0 mm 0.00 in0.0 mm 0.00 in0.0 mm
09:11 PM 35.8°F2.1°C 23.3°F-4.8°C 60% Calm Calm -- 29.69 in1005.4 mb 0.00 in0.0 mm 0.00 in0.0 mm 0.00 in0.0 mm
09:12 PM 35.8°F2.1°C 22.9°F-5.1°C 59% Calm Calm -- 29.69 in1005.4 mb 0.00 in0.0 mm 0.00 in0.0 mm 0.00 in0.0 mm
09:13 PM 35.8°F2.1°C 22.9°F-5.1°C 59% Calm Calm -- 29.69 in1005.4 mb 0.00 in0.0 mm 0.00 in0.0 mm 0.00 in0.0 mm
09:14 PM 35.8°F2.1°C 22.9°F-5.1°C 59% Calm Calm -- 29.69 in1005.4 mb 0.00 in0.0 mm 0.00 in0.0 mm 0.00 in0.0 mm
09:15 PM 35.8°F2.1°C 23.3°F-4.8°C 60% Calm Calm -- 29.69 in1005.4 mb 0.00 in0.0 mm 0.00 in0.0 mm 0.00 in0.0 mm
09:16 PM 35.6°F2.0°C 23.1°F-4.9°C 60% Calm Calm -- 29.69 in1005.4 mb 0.00 in0.0 mm 0.00 in0.0 mm 0.00 in0.0 mm
09:17 PM 35.6°F2.0°C 23.1°F-4.9°C 60% Calm Calm -- 29.69 in1005.4 mb 0.00 in0.0 mm 0.00 in0.0 mm 0.00 in0.0 mm
09:18 PM 35.6°F2.0°C 23.1°F-4.9°C 60% Calm Calm -- 29.69 in1005.4 mb 0.00 in0.0 mm 0.00 in0.0 mm 0.00 in0.0 mm
09:19 PM 35.6°F2.0°C 23.1°F-4.9°C 60% Calm Calm -- 29.69 in1005.4 mb 0.00 in0.0 mm 0.00 in0.0 mm 0.00 in0.0 mm
09:20 PM 35.6°F2.0°C 23.1°F-4.9°C 60% Calm Calm -- 29.69 in1005.4 mb 0.00 in0.0 mm 0.00 in0.0 mm 0.00 in0.0 mm
09:21 PM 35.4°F1.9°C 22.5°F-5.3°C 59% Calm Calm -- 29.70 in1005.8 mb 0.00 in0.0 mm 0.00 in0.0 mm 0.00 in0.0 mm
09:22 PM 35.4°F1.9°C 22.5°F-5.3°C 59% Calm Calm -- 29.70 in1005.8 mb 0.00 in0.0 mm 0.00 in0.0 mm 0.00 in0.0 mm
09:23 PM 35.4°F1.9°C 22.5°F-5.3°C 59% Calm Calm -- 29.70 in1005.8 mb 0.00 in0.0 mm 0.00 in0.0 mm 0.00 in0.0 mm
09:24 PM 35.4°F1.9°C 22.5°F-5.3°C 59% Calm Calm -- 29.70 in1005.8 mb 0.00 in0.0 mm 0.00 in0.0 mm 0.00 in0.0 mm
09:25 PM 35.4°F1.9°C 22.5°F-5.3°C 59% Calm Calm -- 29.70 in1005.8 mb 0.00 in0.0 mm 0.00 in0.0 mm 0.00 in0.0 mm
09:26 PM 35.2°F1.8°C 22.3°F-5.4°C 59% Calm Calm -- 29.70 in1005.8 mb 0.00 in0.0 mm 0.00 in0.0 mm 0.00 in0.0 mm
09:27 PM 35.2°F1.8°C 22.7°F-5.2°C 60% Calm Calm -- 29.70 in1005.8 mb 0.00 in0.0 mm 0.00 in0.0 mm 0.00 in0.0 mm
09:28 PM 35.2°F1.8°C 23.1°F-4.9°C 61% Calm Calm -- 29.70 in1005.8 mb 0.00 in0.0 mm 0.00 in0.0 mm 0.00 in0.0 mm
09:29 PM 35.2°F1.8°C 23.5°F-4.7°C 62% Calm Calm -- 29.70 in1005.8 mb 0.00 in0.0 mm 0.00 in0.0 mm 0.00 in0.0 mm
09:30 PM 35.2°F1.8°C 23.5°F-4.7°C 62% Calm Calm -- 29.70 in1005.8 mb 0.00 in0.0 mm 0.00 in0.0 mm 0.00 in0.0 mm
09:31 PM 35.2°F1.8°C 23.1°F-4.9°C 61% Calm Calm -- 29.70 in1005.8 mb 0.00 in0.0 mm 0.00 in0.0 mm 0.00 in0.0 mm
09:32 PM 35.2°F1.8°C 23.1°F-4.9°C 61% Calm Calm -- 29.70 in1005.8 mb 0.00 in0.0 mm 0.00 in0.0 mm 0.00 in0.0 mm
09:33 PM 35.2°F1.8°C 23.1°F-4.9°C 61% Calm Calm -- 29.70 in1005.8 mb 0.00 in0.0 mm 0.00 in0.0 mm 0.00 in0.0 mm
09:34 PM 35.2°F1.8°C 23.1°F-4.9°C 61% Calm Calm -- 29.70 in1005.8 mb 0.00 in0.0 mm 0.00 in0.0 mm 0.00 in0.0 mm
09:35 PM 35.2°F1.8°C 23.1°F-4.9°C 61% Calm Calm -- 29.70 in1005.8 mb 0.00 in0.0 mm 0.00 in0.0 mm 0.00 in0.0 mm
09:36 PM 35.2°F1.8°C 23.5°F-4.7°C 62% Calm Calm -- 29.70 in1005.8 mb 0.00 in0.0 mm 0.00 in0.0 mm 0.00 in0.0 mm
09:37 PM 35.2°F1.8°C 23.1°F-4.9°C 61% Calm Calm -- 29.70 in1005.8 mb 0.00 in0.0 mm 0.00 in0.0 mm 0.00 in0.0 mm
09:38 PM 35.2°F1.8°C 23.1°F-4.9°C 61% Calm Calm -- 29.70 in1005.8 mb 0.00 in0.0 mm 0.00 in0.0 mm 0.00 in0.0 mm
09:39 PM 35.2°F1.8°C 23.5°F-4.7°C 62% Calm Calm -- 29.70 in1005.8 mb 0.00 in0.0 mm 0.00 in0.0 mm 0.00 in0.0 mm
09:40 PM 35.2°F1.8°C 23.9°F-4.5°C 63% Calm Calm -- 29.70 in1005.8 mb 0.00 in0.0 mm 0.00 in0.0 mm 0.00 in0.0 mm
09:41 PM 35.2°F1.8°C 23.9°F-4.5°C 63% Calm Calm -- 29.70 in1005.8 mb 0.00 in0.0 mm 0.00 in0.0 mm 0.00 in0.0 mm
09:42 PM 35.2°F1.8°C 23.9°F-4.5°C 63% Calm Calm -- 29.70 in1005.8 mb 0.00 in0.0 mm 0.00 in0.0 mm 0.00 in0.0 mm
09:43 PM 35.1°F1.7°C 23.8°F-4.6°C 63% Calm Calm -- 29.70 in1005.8 mb 0.00 in0.0 mm 0.00 in0.0 mm 0.00 in0.0 mm
09:44 PM 35.1°F1.7°C 23.8°F-4.6°C 63% Calm Calm -- 29.70 in1005.8 mb 0.00 in0.0 mm 0.00 in0.0 mm 0.00 in0.0 mm
09:45 PM 35.1°F1.7°C 23.8°F-4.6°C 63% Calm Calm -- 29.70 in1005.8 mb 0.00 in0.0 mm 0.00 in0.0 mm 0.00 in0.0 mm
09:46 PM 35.1°F1.7°C 23.8°F-4.6°C 63% Calm Calm -- 29.70 in1005.8 mb 0.00 in0.0 mm 0.00 in0.0 mm 0.00 in0.0 mm
09:47 PM 35.1°F1.7°C 23.8°F-4.6°C 63% Calm Calm -- 29.70 in1005.8 mb 0.00 in0.0 mm 0.00 in0.0 mm 0.00 in0.0 mm
09:48 PM 34.9°F1.6°C 23.6°F-4.7°C 63% Calm Calm -- 29.70 in1005.8 mb 0.00 in0.0 mm 0.00 in0.0 mm 0.00 in0.0 mm
09:49 PM 34.9°F1.6°C 23.6°F-4.7°C 63% Calm Calm -- 29.70 in1005.8 mb 0.00 in0.0 mm 0.00 in0.0 mm 0.00 in0.0 mm
09:50 PM 34.9°F1.6°C 24.0°F-4.4°C 64% Calm Calm -- 29.70 in1005.8 mb 0.00 in0.0 mm 0.00 in0.0 mm 0.00 in0.0 mm
09:51 PM 34.9°F1.6°C 24.0°F-4.4°C 64% Calm Calm -- 29.70 in1005.8 mb 0.00 in0.0 mm 0.00 in0.0 mm 0.00 in0.0 mm
09:52 PM 34.9°F1.6°C 24.0°F-4.4°C 64% Calm Calm -- 29.70 in1005.8 mb 0.00 in0.0 mm 0.00 in0.0 mm 0.00 in0.0 mm
09:53 PM 34.7°F1.5°C 23.8°F-4.6°C 64% Calm Calm -- 29.70 in1005.8 mb 0.00 in0.0 mm 0.00 in0.0 mm 0.00 in0.0 mm
09:54 PM 34.7°F1.5°C 23.8°F-4.6°C 64% Calm Calm -- 29.70 in1005.8 mb 0.00 in0.0 mm 0.00 in0.0 mm 0.00 in0.0 mm
09:55 PM 34.7°F1.5°C 23.8°F-4.6°C 64% Calm Calm -- 29.70 in1005.8 mb 0.00 in0.0 mm 0.00 in0.0 mm 0.00 in0.0 mm
09:56 PM 34.7°F1.5°C 23.8°F-4.6°C 64% Calm Calm -- 29.70 in1005.8 mb 0.00 in0.0 mm 0.00 in0.0 mm 0.00 in0.0 mm
09:57 PM 34.7°F1.5°C 23.8°F-4.6°C 64% Calm Calm -- 29.70 in1005.8 mb 0.00 in0.0 mm 0.00 in0.0 mm 0.00 in0.0 mm
09:58 PM 34.7°F1.5°C 23.8°F-4.6°C 64% Calm Calm -- 29.69 in1005.4 mb 0.00 in0.0 mm 0.00 in0.0 mm 0.00 in0.0 mm
09:59 PM 34.7°F1.5°C 23.8°F-4.6°C 64% Calm Calm -- 29.69 in1005.4 mb 0.00 in0.0 mm 0.00 in0.0 mm 0.00 in0.0 mm
10:00 PM 34.5°F1.4°C 23.6°F-4.7°C 64% Calm Calm -- 29.69 in1005.4 mb 0.00 in0.0 mm 0.00 in0.0 mm 0.00 in0.0 mm
10:01 PM 34.5°F1.4°C 23.2°F-4.9°C 63% Calm Calm -- 29.69 in1005.4 mb 0.00 in0.0 mm 0.00 in0.0 mm 0.00 in0.0 mm
10:02 PM 34.5°F1.4°C 23.2°F-4.9°C 63% Calm Calm -- 29.69 in1005.4 mb 0.00 in0.0 mm 0.00 in0.0 mm 0.00 in0.0 mm
10:03 PM 34.5°F1.4°C 23.2°F-4.9°C 63% Calm Calm -- 29.69 in1005.4 mb 0.00 in0.0 mm 0.00 in0.0 mm 0.00 in0.0 mm
10:04 PM 34.5°F1.4°C 23.2°F-4.9°C 63% Calm Calm -- 29.69 in1005.4 mb 0.00 in0.0 mm 0.00 in0.0 mm 0.00 in0.0 mm
10:05 PM 34.3°F1.3°C 22.7°F-5.2°C 62% Calm Calm -- 29.69 in1005.4 mb 0.00 in0.0 mm 0.00 in0.0 mm 0.00 in0.0 mm
10:07 PM 34.3°F1.3°C 22.7°F-5.2°C 62% Calm Calm -- 29.69 in1005.4 mb 0.00 in0.0 mm 0.00 in0.0 mm 0.00 in0.0 mm
10:08 PM 34.3°F1.3°C 22.7°F-5.2°C 62% Calm Calm -- 29.69 in1005.4 mb 0.00 in0.0 mm 0.00 in0.0 mm 0.00 in0.0 mm
10:09 PM 34.3°F1.3°C 22.7°F-5.2°C 62% Calm Calm -- 29.69 in1005.4 mb 0.00 in0.0 mm 0.00 in0.0 mm 0.00 in0.0 mm
10:10 PM 34.3°F1.3°C 22.7°F-5.2°C 62% Calm Calm -- 29.70 in1005.8 mb 0.00 in0.0 mm 0.00 in0.0 mm 0.00 in0.0 mm
10:11 PM 34.3°F1.3°C 22.7°F-5.2°C 62% Calm Calm -- 29.70 in1005.8 mb 0.00 in0.0 mm 0.00 in0.0 mm 0.00 in0.0 mm
10:12 PM 34.3°F1.3°C 22.7°F-5.2°C 62% Calm Calm -- 29.70 in1005.8 mb 0.00 in0.0 mm 0.00 in0.0 mm 0.00 in0.0 mm
10:13 PM 34.2°F1.2°C 22.6°F-5.2°C 62% Calm Calm -- 29.70 in1005.8 mb 0.00 in0.0 mm 0.00 in0.0 mm 0.00 in0.0 mm
10:14 PM 34.2°F1.2°C 22.2°F-5.4°C 61% Calm Calm -- 29.70 in1005.8 mb 0.00 in0.0 mm 0.00 in0.0 mm 0.00 in0.0 mm
10:15 PM 34.2°F1.2°C 22.2°F-5.4°C 61% Calm Calm -- 29.70 in1005.8 mb 0.00 in0.0 mm 0.00 in0.0 mm 0.00 in0.0 mm
10:16 PM 34.2°F1.2°C 22.6°F-5.2°C 62% Calm Calm -- 29.70 in1005.8 mb 0.00 in0.0 mm 0.00 in0.0 mm 0.00 in0.0 mm
10:17 PM 34.2°F1.2°C 22.6°F-5.2°C 62% Calm Calm -- 29.70 in1005.8 mb 0.00 in0.0 mm 0.00 in0.0 mm 0.00 in0.0 mm
10:18 PM 34.2°F1.2°C 22.6°F-5.2°C 62% Calm Calm -- 29.70 in1005.8 mb 0.00 in0.0 mm 0.00 in0.0 mm 0.00 in0.0 mm
10:19 PM 34.2°F1.2°C 22.6°F-5.2°C 62% Calm Calm -- 29.70 in1005.8 mb 0.00 in0.0 mm 0.00 in0.0 mm 0.00 in0.0 mm
10:20 PM 34.2°F1.2°C 22.6°F-5.2°C 62% Calm Calm -- 29.70 in1005.8 mb 0.00 in0.0 mm 0.00 in0.0 mm 0.00 in0.0 mm
10:21 PM 34.2°F1.2°C 22.6°F-5.2°C 62% Calm Calm -- 29.70 in1005.8 mb 0.00 in0.0 mm 0.00 in0.0 mm 0.00 in0.0 mm
10:22 PM 34.2°F1.2°C 22.9°F-5.1°C 63% Calm Calm -- 29.69 in1005.4 mb 0.00 in0.0 mm 0.00 in0.0 mm 0.00 in0.0 mm
10:23 PM 34.2°F1.2°C 23.3°F-4.8°C 64% Calm Calm -- 29.69 in1005.4 mb 0.00 in0.0 mm 0.00 in0.0 mm 0.00 in0.0 mm
10:24 PM 34.2°F1.2°C 23.3°F-4.8°C 64% Calm Calm -- 29.69 in1005.4 mb 0.00 in0.0 mm 0.00 in0.0 mm 0.00 in0.0 mm
10:25 PM 34.2°F1.2°C 23.7°F-4.6°C 65% Calm Calm -- 29.69 in1005.4 mb 0.00 in0.0 mm 0.00 in0.0 mm 0.00 in0.0 mm
10:26 PM 34.2°F1.2°C 23.7°F-4.6°C 65% Calm Calm -- 29.69 in1005.4 mb 0.00 in0.0 mm 0.00 in0.0 mm 0.00 in0.0 mm
10:27 PM 34.2°F1.2°C 23.7°F-4.6°C 65% Calm Calm -- 29.69 in1005.4 mb 0.00 in0.0 mm 0.00 in0.0 mm 0.00 in0.0 mm
10:28 PM 34.2°F1.2°C 23.7°F-4.6°C 65% Calm Calm -- 29.69 in1005.4 mb 0.00 in0.0 mm 0.00 in0.0 mm 0.00 in0.0 mm
10:29 PM 34.2°F1.2°C 23.7°F-4.6°C 65% Calm Calm -- 29.69 in1005.4 mb 0.00 in0.0 mm 0.00 in0.0 mm 0.00 in0.0 mm
10:30 PM 34.2°F1.2°C 23.7°F-4.6°C 65% Calm Calm -- 29.69 in1005.4 mb 0.00 in0.0 mm 0.00 in0.0 mm 0.00 in0.0 mm
10:31 PM 34.0°F1.1°C 23.1°F-4.9°C 64% Calm Calm -- 29.69 in1005.4 mb 0.00 in0.0 mm 0.00 in0.0 mm 0.00 in0.0 mm
10:32 PM 34.0°F1.1°C 23.1°F-4.9°C 64% Calm Calm -- 29.69 in1005.4 mb 0.00 in0.0 mm 0.00 in0.0 mm 0.00 in0.0 mm
10:33 PM 34.0°F1.1°C 23.1°F-4.9°C 64% Calm Calm -- 29.69 in1005.4 mb 0.00 in0.0 mm 0.00 in0.0 mm 0.00 in0.0 mm
10:34 PM 33.8°F1.0°C 22.9°F-5.1°C 64% Calm Calm -- 29.70 in1005.8 mb 0.00 in0.0 mm 0.00 in0.0 mm 0.00 in0.0 mm
10:35 PM 33.8°F1.0°C 22.9°F-5.1°C 64% Calm Calm -- 29.70 in1005.8 mb 0.00 in0.0 mm 0.00 in0.0 mm 0.00 in0.0 mm
10:36 PM 33.8°F1.0°C 22.9°F-5.1°C 64% Calm Calm -- 29.70 in1005.8 mb 0.00 in0.0 mm 0.00 in0.0 mm 0.00 in0.0 mm
10:37 PM 33.8°F1.0°C 23.3°F-4.8°C 65% Calm Calm -- 29.70 in1005.8 mb 0.00 in0.0 mm 0.00 in0.0 mm 0.00 in0.0 mm
10:38 PM 33.8°F1.0°C 22.9°F-5.1°C 64% Calm Calm -- 29.70 in1005.8 mb 0.00 in0.0 mm 0.00 in0.0 mm 0.00 in0.0 mm
10:39 PM 33.8°F1.0°C 22.9°F-5.1°C 64% Calm Calm -- 29.70 in1005.8 mb 0.00 in0.0 mm 0.00 in0.0 mm 0.00 in0.0 mm
10:40 PM 33.8°F1.0°C 22.9°F-5.1°C 64% Calm Calm -- 29.70 in1005.8 mb 0.00 in0.0 mm 0.00 in0.0 mm 0.00 in0.0 mm
10:41 PM 33.8°F1.0°C 22.9°F-5.1°C 64% Calm Calm -- 29.70 in1005.8 mb 0.00 in0.0 mm 0.00 in0.0 mm 0.00 in0.0 mm
10:42 PM 33.8°F1.0°C 23.3°F-4.8°C 65% Calm Calm -- 29.70 in1005.8 mb 0.00 in0.0 mm 0.00 in0.0 mm 0.00 in0.0 mm
10:43 PM 33.8°F1.0°C 23.3°F-4.8°C 65% Calm Calm -- 29.70 in1005.8 mb 0.00 in0.0 mm 0.00 in0.0 mm 0.00 in0.0 mm
10:44 PM 33.8°F1.0°C 23.3°F-4.8°C 65% Calm Calm -- 29.70 in1005.8 mb 0.00 in0.0 mm 0.00 in0.0 mm 0.00 in0.0 mm
10:45 PM 33.8°F1.0°C 23.3°F-4.8°C 65% Calm Calm -- 29.70 in1005.8 mb 0.00 in0.0 mm 0.00 in0.0 mm 0.00 in0.0 mm
10:46 PM 33.6°F0.9°C 23.1°F-4.9°C 65% Calm Calm -- 29.70 in1005.8 mb 0.00 in0.0 mm 0.00 in0.0 mm 0.00 in0.0 mm
10:47 PM 33.6°F0.9°C 23.1°F-4.9°C 65% Calm Calm -- 29.70 in1005.8 mb 0.00 in0.0 mm 0.00 in0.0 mm 0.00 in0.0 mm
10:48 PM 33.6°F0.9°C 23.1°F-4.9°C 65% Calm Calm -- 29.70 in1005.8 mb 0.00 in0.0 mm 0.00 in0.0 mm 0.00 in0.0 mm
10:49 PM 33.6°F0.9°C 23.5°F-4.7°C 66% Calm Calm -- 29.70 in1005.8 mb 0.00 in0.0 mm 0.00 in0.0 mm 0.00 in0.0 mm
10:50 PM 33.6°F0.9°C 23.5°F-4.7°C 66% Calm Calm -- 29.70 in1005.8 mb 0.00 in0.0 mm 0.00 in0.0 mm 0.00 in0.0 mm
10:51 PM 33.6°F0.9°C 23.5°F-4.7°C 66% Calm Calm -- 29.70 in1005.8 mb 0.00 in0.0 mm 0.00 in0.0 mm 0.00 in0.0 mm
10:52 PM 33.6°F0.9°C 23.5°F-4.7°C 66% Calm Calm -- 29.70 in1005.8 mb 0.00 in0.0 mm 0.00 in0.0 mm 0.00 in0.0 mm
10:53 PM 33.6°F0.9°C 23.5°F-4.7°C 66% Calm Calm -- 29.70 in1005.8 mb 0.00 in0.0 mm 0.00 in0.0 mm 0.00 in0.0 mm
10:54 PM 33.6°F0.9°C 23.5°F-4.7°C 66% Calm Calm -- 29.70 in1005.8 mb 0.00 in0.0 mm 0.00 in0.0 mm 0.00 in0.0 mm
10:55 PM 33.6°F0.9°C 23.5°F-4.7°C 66% Calm Calm -- 29.70 in1005.8 mb 0.00 in0.0 mm 0.00 in0.0 mm 0.00 in0.0 mm
10:56 PM 33.6°F0.9°C 23.8°F-4.6°C 67% Calm Calm -- 29.70 in1005.8 mb 0.00 in0.0 mm 0.00 in0.0 mm 0.00 in0.0 mm
10:57 PM 33.4°F0.8°C 23.3°F-4.8°C 66% Calm Calm -- 29.70 in1005.8 mb 0.00 in0.0 mm 0.00 in0.0 mm 0.00 in0.0 mm
10:58 PM 33.4°F0.8°C 23.3°F-4.8°C 66% Calm Calm 1.1 mph1.8 kmh 29.70 in1005.8 mb 0.00 in0.0 mm 0.00 in0.0 mm 0.00 in0.0 mm
10:59 PM 33.4°F0.8°C 23.3°F-4.8°C 66% Calm Calm 1.1 mph1.8 kmh 29.70 in1005.8 mb 0.00 in0.0 mm 0.00 in0.0 mm 0.00 in0.0 mm
11:00 PM 33.4°F0.8°C 23.3°F-4.8°C 66% Calm Calm 1.1 mph1.8 kmh 29.70 in1005.8 mb 0.00 in0.0 mm 0.00 in0.0 mm 0.00 in0.0 mm
11:01 PM 33.3°F0.7°C 23.2°F-4.9°C 66% Calm Calm 1.1 mph1.8 kmh 29.70 in1005.8 mb 0.00 in0.0 mm 0.00 in0.0 mm 0.00 in0.0 mm
11:02 PM 33.3°F0.7°C 23.2°F-4.9°C 66% Calm Calm 1.1 mph1.8 kmh 29.70 in1005.8 mb 0.00 in0.0 mm 0.00 in0.0 mm 0.00 in0.0 mm
11:03 PM 33.3°F0.7°C 23.5°F-4.7°C 67% Calm Calm 1.1 mph1.8 kmh 29.70 in1005.8 mb 0.00 in0.0 mm 0.00 in0.0 mm 0.00 in0.0 mm
11:04 PM 33.3°F0.7°C 23.2°F-4.9°C 66% Calm Calm 1.1 mph1.8 kmh 29.70 in1005.8 mb 0.00 in0.0 mm 0.00 in0.0 mm 0.00 in0.0 mm
11:05 PM 33.3°F0.7°C 23.2°F-4.9°C 66% Calm Calm 1.1 mph1.8 kmh 29.70 in1005.8 mb 0.00 in0.0 mm 0.00 in0.0 mm 0.00 in0.0 mm
11:06 PM 33.3°F0.7°C 23.5°F-4.7°C 67% Calm Calm 1.1 mph1.8 kmh 29.70 in1005.8 mb 0.00 in0.0 mm 0.00 in0.0 mm 0.00 in0.0 mm
11:07 PM 33.3°F0.7°C 23.5°F-4.7°C 67% Calm Calm 1.1 mph1.8 kmh 29.70 in1005.8 mb 0.00 in0.0 mm 0.00 in0.0 mm 0.00 in0.0 mm
11:08 PM 33.3°F0.7°C 23.9°F-4.5°C 68% Calm Calm -- 29.70 in1005.8 mb 0.00 in0.0 mm 0.00 in0.0 mm 0.00 in0.0 mm
11:09 PM 33.3°F0.7°C 23.9°F-4.5°C 68% Calm Calm -- 29.70 in1005.8 mb 0.00 in0.0 mm 0.00 in0.0 mm 0.00 in0.0 mm
11:10 PM 33.3°F0.7°C 24.2°F-4.3°C 69% Calm Calm -- 29.70 in1005.8 mb 0.00 in0.0 mm 0.00 in0.0 mm 0.00 in0.0 mm
11:11 PM 33.3°F0.7°C 24.2°F-4.3°C 69% Calm Calm -- 29.70 in1005.8 mb 0.00 in0.0 mm 0.00 in0.0 mm 0.00 in0.0 mm
11:12 PM 33.3°F0.7°C 24.2°F-4.3°C 69% Calm Calm -- 29.70 in1005.8 mb 0.00 in0.0 mm 0.00 in0.0 mm 0.00 in0.0 mm
11:13 PM 33.1°F0.6°C 23.7°F-4.6°C 68% Calm Calm -- 29.70 in1005.8 mb 0.00 in0.0 mm 0.00 in0.0 mm 0.00 in0.0 mm
11:14 PM 33.1°F0.6°C 23.7°F-4.6°C 68% Calm Calm -- 29.70 in1005.8 mb 0.00 in0.0 mm 0.00 in0.0 mm 0.00 in0.0 mm
11:15 PM 33.1°F0.6°C 23.7°F-4.6°C 68% Calm Calm -- 29.70 in1005.8 mb 0.00 in0.0 mm 0.00 in0.0 mm 0.00 in0.0 mm
11:16 PM 33.1°F0.6°C 23.7°F-4.6°C 68% Calm Calm -- 29.70 in1005.8 mb 0.00 in0.0 mm 0.00 in0.0 mm 0.00 in0.0 mm
11:17 PM 33.1°F0.6°C 23.7°F-4.6°C 68% Calm Calm -- 29.70 in1005.8 mb 0.00 in0.0 mm 0.00 in0.0 mm 0.00 in0.0 mm
11:18 PM 33.1°F0.6°C 23.7°F-4.6°C 68% Calm Calm -- 29.70 in1005.8 mb 0.00 in0.0 mm 0.00 in0.0 mm 0.00 in0.0 mm
11:19 PM 33.1°F0.6°C 23.7°F-4.6°C 68% Calm Calm -- 29.70 in1005.8 mb 0.00 in0.0 mm 0.00 in0.0 mm 0.00 in0.0 mm
11:20 PM 32.9°F0.5°C 23.5°F-4.7°C 68% Calm Calm -- 29.70 in1005.8 mb 0.00 in0.0 mm 0.00 in0.0 mm 0.00 in0.0 mm
11:21 PM 32.9°F0.5°C 23.5°F-4.7°C 68% Calm Calm -- 29.70 in1005.8 mb 0.00 in0.0 mm 0.00 in0.0 mm 0.00 in0.0 mm
11:22 PM 32.9°F0.5°C 23.5°F-4.7°C 68% Calm Calm -- 29.70 in1005.8 mb 0.00 in0.0 mm 0.00 in0.0 mm 0.00 in0.0 mm
11:23 PM 32.9°F0.5°C 23.5°F-4.7°C 68% Calm Calm -- 29.70 in1005.8 mb 0.00 in0.0 mm 0.00 in0.0 mm 0.00 in0.0 mm
11:24 PM 32.9°F0.5°C 23.9°F-4.5°C 69% Calm Calm -- 29.70 in1005.8 mb 0.00 in0.0 mm 0.00 in0.0 mm 0.00 in0.0 mm
11:25 PM 32.9°F0.5°C 23.9°F-4.5°C 69% Calm Calm -- 29.70 in1005.8 mb 0.00 in0.0 mm 0.00 in0.0 mm 0.00 in0.0 mm
11:26 PM 32.9°F0.5°C 23.9°F-4.5°C 69% Calm Calm -- 29.70 in1005.8 mb 0.00 in0.0 mm 0.00 in0.0 mm 0.00 in0.0 mm
11:27 PM 32.9°F0.5°C 23.9°F-4.5°C 69% Calm Calm -- 29.70 in1005.8 mb 0.00 in0.0 mm 0.00 in0.0 mm 0.00 in0.0 mm
11:28 PM 32.9°F0.5°C 23.9°F-4.5°C 69% Calm Calm -- 29.70 in1005.8 mb 0.00 in0.0 mm 0.00 in0.0 mm 0.00 in0.0 mm
11:29 PM 32.9°F0.5°C 23.9°F-4.5°C 69% Calm Calm -- 29.70 in1005.8 mb 0.00 in0.0 mm 0.00 in0.0 mm 0.00 in0.0 mm
11:30 PM 32.7°F0.4°C 23.7°F-4.6°C 69% Calm Calm -- 29.70 in1005.8 mb 0.00 in0.0 mm 0.00 in0.0 mm 0.00 in0.0 mm
11:31 PM 32.7°F0.4°C 23.7°F-4.6°C 69% Calm Calm -- 29.70 in1005.8 mb 0.00 in0.0 mm 0.00 in0.0 mm 0.00 in0.0 mm
11:32 PM 32.7°F0.4°C 23.7°F-4.6°C 69% Calm Calm -- 29.70 in1005.8 mb 0.00 in0.0 mm 0.00 in0.0 mm 0.00 in0.0 mm
11:33 PM 32.7°F0.4°C 23.7°F-4.6°C 69% Calm Calm -- 29.70 in1005.8 mb 0.00 in0.0 mm 0.00 in0.0 mm 0.00 in0.0 mm
11:34 PM 32.7°F0.4°C 24.0°F-4.4°C 70% Calm Calm -- 29.70 in1005.8 mb 0.00 in0.0 mm 0.00 in0.0 mm 0.00 in0.0 mm
11:35 PM 32.7°F0.4°C 24.0°F-4.4°C 70% Calm Calm -- 29.70 in1005.8 mb 0.00 in0.0 mm 0.00 in0.0 mm 0.00 in0.0 mm
11:36 PM 32.5°F0.3°C 23.5°F-4.7°C 69% Calm Calm -- 29.70 in1005.8 mb 0.00 in0.0 mm 0.00 in0.0 mm 0.00 in0.0 mm
11:37 PM 32.5°F0.3°C 23.5°F-4.7°C 69% Calm Calm -- 29.70 in1005.8 mb 0.00 in0.0 mm 0.00 in0.0 mm 0.00 in0.0 mm
11:38 PM 32.5°F0.3°C 23.5°F-4.7°C 69% Calm Calm -- 29.70 in1005.8 mb 0.00 in0.0 mm 0.00 in0.0 mm 0.00 in0.0 mm
11:39 PM 32.5°F0.3°C 23.5°F-4.7°C 69% Calm Calm -- 29.70 in1005.8 mb 0.00 in0.0 mm 0.00 in0.0 mm 0.00 in0.0 mm
11:40 PM 32.5°F0.3°C 23.5°F-4.7°C 69% Calm Calm -- 29.70 in1005.8 mb 0.00 in0.0 mm 0.00 in0.0 mm 0.00 in0.0 mm
11:41 PM 32.5°F0.3°C 23.1°F-4.9°C 68% Calm Calm -- 29.70 in1005.8 mb 0.00 in0.0 mm 0.00 in0.0 mm 0.00 in0.0 mm
11:42 PM 32.5°F0.3°C 23.1°F-4.9°C 68% Calm Calm -- 29.70 in1005.8 mb 0.00 in0.0 mm 0.00 in0.0 mm 0.00 in0.0 mm
11:43 PM 32.5°F0.3°C 23.5°F-4.7°C 69% Calm Calm -- 29.70 in1005.8 mb 0.00 in0.0 mm 0.00 in0.0 mm 0.00 in0.0 mm
11:44 PM 32.5°F0.3°C 23.5°F-4.7°C 69% Calm Calm -- 29.70 in1005.8 mb 0.00 in0.0 mm 0.00 in0.0 mm 0.00 in0.0 mm
11:45 PM 32.5°F0.3°C 23.8°F-4.6°C 70% Calm Calm -- 29.69 in1005.4 mb 0.00 in0.0 mm 0.00 in0.0 mm 0.00 in0.0 mm
11:46 PM 32.4°F0.2°C 23.7°F-4.6°C 70% Calm Calm -- 29.69 in1005.4 mb 0.00 in0.0 mm 0.00 in0.0 mm 0.00 in0.0 mm
11:47 PM 32.4°F0.2°C 23.7°F-4.6°C 70% Calm Calm -- 29.69 in1005.4 mb 0.00 in0.0 mm 0.00 in0.0 mm 0.00 in0.0 mm
11:48 PM 32.4°F0.2°C 23.7°F-4.6°C 70% Calm Calm -- 29.69 in1005.4 mb 0.00 in0.0 mm 0.00 in0.0 mm 0.00 in0.0 mm
11:49 PM 32.4°F0.2°C 23.7°F-4.6°C 70% Calm Calm -- 29.69 in1005.4 mb 0.00 in0.0 mm 0.00 in0.0 mm 0.00 in0.0 mm
11:50 PM 32.4°F0.2°C 23.7°F-4.6°C 70% Calm Calm -- 29.69 in1005.4 mb 0.00 in0.0 mm 0.00 in0.0 mm 0.00 in0.0 mm
11:51 PM 32.4°F0.2°C 23.7°F-4.6°C 70% Calm Calm -- 29.69 in1005.4 mb 0.00 in0.0 mm 0.00 in0.0 mm 0.00 in0.0 mm
11:52 PM 32.2°F0.1°C 23.5°F-4.7°C 70% Calm Calm -- 29.69 in1005.4 mb 0.00 in0.0 mm 0.00 in0.0 mm 0.00 in0.0 mm
11:53 PM 32.2°F0.1°C 23.5°F-4.7°C 70% Calm Calm -- 29.69 in1005.4 mb 0.00 in0.0 mm 0.00 in0.0 mm 0.00 in0.0 mm
11:54 PM 32.2°F0.1°C 23.5°F-4.7°C 70% Calm Calm -- 29.69 in1005.4 mb 0.00 in0.0 mm 0.00 in0.0 mm 0.00 in0.0 mm
11:55 PM 32.2°F0.1°C 23.5°F-4.7°C 70% Calm Calm -- 29.69 in1005.4 mb 0.00 in0.0 mm 0.00 in0.0 mm 0.00 in0.0 mm
11:56 PM 32.2°F0.1°C 23.9°F-4.5°C 71% Calm Calm -- 29.69 in1005.4 mb 0.00 in0.0 mm 0.00 in0.0 mm 0.00 in0.0 mm
11:57 PM 32.2°F0.1°C 23.9°F-4.5°C 71% Calm Calm -- 29.70 in1005.8 mb 0.00 in0.0 mm 0.00 in0.0 mm 0.00 in0.0 mm
11:58 PM 32.2°F0.1°C 23.9°F-4.5°C 71% Calm Calm -- 29.70 in1005.8 mb 0.00 in0.0 mm 0.00 in0.0 mm 0.00 in0.0 mm
11:59 PM 32.2°F0.1°C 23.9°F-4.5°C 71% Calm Calm -- 29.70 in1005.8 mb 0.00 in0.0 mm 0.00 in0.0 mm 0.00 in0.0 mm